<?xml version="1.0" encoding="UTF-8" standalone="no" ?><gpx xmlns="http://www.topografix.com/GPX/1/1" xmlns:gpxx="http://www.garmin.com/xmlschemas/GpxExtensions/v3" xmlns:gpxtpx="http://www.garmin.com/xmlschemas/TrackPointExtension/v1" creator="Foretrex 301" version="1.1" xmlns:xsi="http://www.w3.org/2001/XMLSchema-instance" xsi:schemaLocation="http://www.topografix.com/GPX/1/1 http://www.topografix.com/GPX/1/1/gpx.xsd http://www.garmin.com/xmlschemas/GpxExtensions/v3 http://www.garmin.com/xmlschemas/GpxExtensions/v3/GpxExtensionsv3.xsd"><metadata><link href="http://www.garmin.com"><text>Garmin International</text></link><time>2011-08-03T15:03:52Z</time></metadata><trk><name>ACTIVE LOG: 03 AUG 2011 09:01</name><trkseg><trkpt lat="51.662204" lon="-2.270366"><ele>234.70</ele><time>2011-08-03T09:01:28Z</time></trkpt><trkpt lat="51.662194" lon="-2.270349"><ele>234.22</ele><time>2011-08-03T09:01:49Z</time></trkpt><trkpt lat="51.662199" lon="-2.270358"><ele>233.26</ele><time>2011-08-03T09:01:55Z</time></trkpt><trkpt lat="51.662188" lon="-2.270360"><ele>230.37</ele><time>2011-08-03T09:02:18Z</time></trkpt><trkpt lat="51.662180" lon="-2.270370"><ele>228.45</ele><time>2011-08-03T09:02:26Z</time></trkpt><trkpt lat="51.662179" lon="-2.270392"><ele>227.01</ele><time>2011-08-03T09:02:35Z</time></trkpt><trkpt lat="51.662169" lon="-2.270384"><ele>226.53</ele><time>2011-08-03T09:02:46Z</time></trkpt><trkpt lat="51.662165" lon="-2.270386"><ele>226.53</ele><time>2011-08-03T09:02:59Z</time></trkpt><trkpt lat="51.662186" lon="-2.270366"><ele>226.05</ele><time>2011-08-03T09:03:50Z</time></trkpt><trkpt lat="51.662197" lon="-2.270352"><ele>226.05</ele><time>2011-08-03T09:03:52Z</time></trkpt><trkpt lat="51.662210" lon="-2.270228"><ele>226.05</ele><time>2011-08-03T09:04:00Z</time></trkpt><trkpt lat="51.662216" lon="-2.270144"><ele>226.53</ele><time>2011-08-03T09:04:06Z</time></trkpt><trkpt lat="51.662314" lon="-2.269977"><ele>227.01</ele><time>2011-08-03T09:04:19Z</time></trkpt><trkpt lat="51.662380" lon="-2.269879"><ele>227.49</ele><time>2011-08-03T09:04:27Z</time></trkpt><trkpt lat="51.662400" lon="-2.269800"><ele>227.49</ele><time>2011-08-03T09:04:34Z</time></trkpt><trkpt lat="51.662412" lon="-2.269771"><ele>229.41</ele><time>2011-08-03T09:04:50Z</time></trkpt><trkpt lat="51.662400" lon="-2.269737"><ele>230.37</ele><time>2011-08-03T09:05:11Z</time></trkpt><trkpt lat="51.662272" lon="-2.269728"><ele>230.37</ele><time>2011-08-03T09:05:21Z</time></trkpt><trkpt lat="51.662202" lon="-2.269721"><ele>230.85</ele><time>2011-08-03T09:05:27Z</time></trkpt><trkpt lat="51.661969" lon="-2.269731"><ele>225.57</ele><time>2011-08-03T09:05:42Z</time></trkpt><trkpt lat="51.661796" lon="-2.269721"><ele>223.64</ele><time>2011-08-03T09:05:56Z</time></trkpt><trkpt lat="51.661711" lon="-2.269710"><ele>223.16</ele><time>2011-08-03T09:06:03Z</time></trkpt><trkpt lat="51.661657" lon="-2.269694"><ele>223.16</ele><time>2011-08-03T09:06:09Z</time></trkpt><trkpt lat="51.661551" lon="-2.269681"><ele>222.68</ele><time>2011-08-03T09:06:18Z</time></trkpt><trkpt lat="51.661426" lon="-2.269670"><ele>222.20</ele><time>2011-08-03T09:06:29Z</time></trkpt><trkpt lat="51.661333" lon="-2.269644"><ele>222.20</ele><time>2011-08-03T09:06:38Z</time></trkpt><trkpt lat="51.661229" lon="-2.269618"><ele>220.76</ele><time>2011-08-03T09:06:48Z</time></trkpt><trkpt lat="51.661119" lon="-2.269617"><ele>220.76</ele><time>2011-08-03T09:06:58Z</time></trkpt><trkpt lat="51.661016" lon="-2.269613"><ele>218.36</ele><time>2011-08-03T09:07:08Z</time></trkpt><trkpt lat="51.660972" lon="-2.269601"><ele>218.36</ele><time>2011-08-03T09:07:13Z</time></trkpt><trkpt lat="51.660874" lon="-2.269581"><ele>218.84</ele><time>2011-08-03T09:07:23Z</time></trkpt><trkpt lat="51.660762" lon="-2.269563"><ele>219.80</ele><time>2011-08-03T09:07:35Z</time></trkpt><trkpt lat="51.660725" lon="-2.269557"><ele>219.80</ele><time>2011-08-03T09:07:40Z</time></trkpt><trkpt lat="51.660721" lon="-2.269560"><ele>219.80</ele><time>2011-08-03T09:07:43Z</time></trkpt><trkpt lat="51.660692" lon="-2.269551"><ele>219.32</ele><time>2011-08-03T09:07:48Z</time></trkpt><trkpt lat="51.660540" lon="-2.269508"><ele>220.28</ele><time>2011-08-03T09:08:01Z</time></trkpt><trkpt lat="51.660414" lon="-2.269481"><ele>220.76</ele><time>2011-08-03T09:08:12Z</time></trkpt><trkpt lat="51.660307" lon="-2.269454"><ele>221.24</ele><time>2011-08-03T09:08:22Z</time></trkpt><trkpt lat="51.660229" lon="-2.269436"><ele>221.72</ele><time>2011-08-03T09:08:30Z</time></trkpt><trkpt lat="51.660148" lon="-2.269415"><ele>221.72</ele><time>2011-08-03T09:08:39Z</time></trkpt><trkpt lat="51.660046" lon="-2.269378"><ele>223.64</ele><time>2011-08-03T09:08:49Z</time></trkpt><trkpt lat="51.659885" lon="-2.269357"><ele>221.24</ele><time>2011-08-03T09:09:03Z</time></trkpt><trkpt lat="51.659779" lon="-2.269344"><ele>219.80</ele><time>2011-08-03T09:09:14Z</time></trkpt><trkpt lat="51.659661" lon="-2.269326"><ele>220.28</ele><time>2011-08-03T09:09:25Z</time></trkpt><trkpt lat="51.659571" lon="-2.269320"><ele>220.76</ele><time>2011-08-03T09:09:33Z</time></trkpt><trkpt lat="51.659533" lon="-2.269356"><ele>218.84</ele><time>2011-08-03T09:09:41Z</time></trkpt><trkpt lat="51.659540" lon="-2.269353"><ele>218.36</ele><time>2011-08-03T09:10:01Z</time></trkpt><trkpt lat="51.659531" lon="-2.269347"><ele>217.88</ele><time>2011-08-03T09:10:03Z</time></trkpt><trkpt lat="51.659436" lon="-2.269418"><ele>216.91</ele><time>2011-08-03T09:10:13Z</time></trkpt><trkpt lat="51.659382" lon="-2.269471"><ele>217.40</ele><time>2011-08-03T09:10:19Z</time></trkpt><trkpt lat="51.659342" lon="-2.269554"><ele>217.40</ele><time>2011-08-03T09:10:26Z</time></trkpt><trkpt lat="51.659268" lon="-2.269636"><ele>215.95</ele><time>2011-08-03T09:10:36Z</time></trkpt><trkpt lat="51.659220" lon="-2.269677"><ele>214.51</ele><time>2011-08-03T09:10:45Z</time></trkpt><trkpt lat="51.659163" lon="-2.269741"><ele>214.03</ele><time>2011-08-03T09:10:52Z</time></trkpt><trkpt lat="51.659082" lon="-2.269860"><ele>214.03</ele><time>2011-08-03T09:11:03Z</time></trkpt><trkpt lat="51.659007" lon="-2.269919"><ele>214.03</ele><time>2011-08-03T09:11:12Z</time></trkpt><trkpt lat="51.658978" lon="-2.269958"><ele>213.55</ele><time>2011-08-03T09:11:19Z</time></trkpt><trkpt lat="51.658968" lon="-2.269998"><ele>214.03</ele><time>2011-08-03T09:11:27Z</time></trkpt><trkpt lat="51.658959" lon="-2.270041"><ele>213.07</ele><time>2011-08-03T09:11:37Z</time></trkpt><trkpt lat="51.658949" lon="-2.270055"><ele>213.07</ele><time>2011-08-03T09:11:46Z</time></trkpt><trkpt lat="51.658938" lon="-2.270068"><ele>213.55</ele><time>2011-08-03T09:11:54Z</time></trkpt><trkpt lat="51.658926" lon="-2.270078"><ele>213.07</ele><time>2011-08-03T09:12:05Z</time></trkpt><trkpt lat="51.658896" lon="-2.270105"><ele>213.55</ele><time>2011-08-03T09:12:16Z</time></trkpt><trkpt lat="51.658859" lon="-2.270147"><ele>212.59</ele><time>2011-08-03T09:12:29Z</time></trkpt><trkpt lat="51.658817" lon="-2.270204"><ele>211.63</ele><time>2011-08-03T09:12:44Z</time></trkpt><trkpt lat="51.658758" lon="-2.270267"><ele>208.74</ele><time>2011-08-03T09:12:54Z</time></trkpt><trkpt lat="51.658704" lon="-2.270310"><ele>207.30</ele><time>2011-08-03T09:13:10Z</time></trkpt><trkpt lat="51.658657" lon="-2.270368"><ele>207.78</ele><time>2011-08-03T09:13:22Z</time></trkpt><trkpt lat="51.658589" lon="-2.270457"><ele>207.30</ele><time>2011-08-03T09:13:35Z</time></trkpt><trkpt lat="51.658571" lon="-2.270540"><ele>205.38</ele><time>2011-08-03T09:13:47Z</time></trkpt><trkpt lat="51.658573" lon="-2.270639"><ele>204.42</ele><time>2011-08-03T09:13:56Z</time></trkpt><trkpt lat="51.658547" lon="-2.270689"><ele>203.46</ele><time>2011-08-03T09:14:07Z</time></trkpt><trkpt lat="51.658529" lon="-2.270728"><ele>203.46</ele><time>2011-08-03T09:14:19Z</time></trkpt><trkpt lat="51.658474" lon="-2.270808"><ele>204.42</ele><time>2011-08-03T09:14:37Z</time></trkpt><trkpt lat="51.658379" lon="-2.270895"><ele>203.46</ele><time>2011-08-03T09:14:47Z</time></trkpt><trkpt lat="51.658310" lon="-2.270980"><ele>203.94</ele><time>2011-08-03T09:14:57Z</time></trkpt><trkpt lat="51.658253" lon="-2.271053"><ele>202.49</ele><time>2011-08-03T09:15:07Z</time></trkpt><trkpt lat="51.658212" lon="-2.271176"><ele>200.57</ele><time>2011-08-03T09:15:17Z</time></trkpt><trkpt lat="51.658191" lon="-2.271230"><ele>198.65</ele><time>2011-08-03T09:15:26Z</time></trkpt><trkpt lat="51.658130" lon="-2.271309"><ele>196.25</ele><time>2011-08-03T09:15:34Z</time></trkpt><trkpt lat="51.658110" lon="-2.271337"><ele>195.28</ele><time>2011-08-03T09:15:37Z</time></trkpt><trkpt lat="51.658041" lon="-2.271349"><ele>194.80</ele><time>2011-08-03T09:15:46Z</time></trkpt><trkpt lat="51.658036" lon="-2.271344"><ele>194.80</ele><time>2011-08-03T09:15:49Z</time></trkpt><trkpt lat="51.657965" lon="-2.271565"><ele>189.52</ele><time>2011-08-03T09:16:06Z</time></trkpt><trkpt lat="51.657889" lon="-2.271701"><ele>188.08</ele><time>2011-08-03T09:16:17Z</time></trkpt><trkpt lat="51.657815" lon="-2.271772"><ele>188.56</ele><time>2011-08-03T09:16:27Z</time></trkpt><trkpt lat="51.657750" lon="-2.271886"><ele>188.08</ele><time>2011-08-03T09:16:37Z</time></trkpt><trkpt lat="51.657702" lon="-2.271999"><ele>188.08</ele><time>2011-08-03T09:16:45Z</time></trkpt><trkpt lat="51.657632" lon="-2.272112"><ele>187.11</ele><time>2011-08-03T09:16:55Z</time></trkpt><trkpt lat="51.657578" lon="-2.272190"><ele>187.11</ele><time>2011-08-03T09:17:03Z</time></trkpt><trkpt lat="51.657569" lon="-2.272249"><ele>187.59</ele><time>2011-08-03T09:17:10Z</time></trkpt><trkpt lat="51.657563" lon="-2.272274"><ele>187.11</ele><time>2011-08-03T09:17:17Z</time></trkpt><trkpt lat="51.657549" lon="-2.272366"><ele>186.15</ele><time>2011-08-03T09:17:26Z</time></trkpt><trkpt lat="51.657543" lon="-2.272484"><ele>186.15</ele><time>2011-08-03T09:17:34Z</time></trkpt><trkpt lat="51.657596" lon="-2.272627"><ele>187.59</ele><time>2011-08-03T09:17:45Z</time></trkpt><trkpt lat="51.657611" lon="-2.272753"><ele>188.08</ele><time>2011-08-03T09:17:53Z</time></trkpt><trkpt lat="51.657627" lon="-2.272890"><ele>189.52</ele><time>2011-08-03T09:18:02Z</time></trkpt><trkpt lat="51.657635" lon="-2.273042"><ele>190.48</ele><time>2011-08-03T09:18:12Z</time></trkpt><trkpt lat="51.657629" lon="-2.273059"><ele>190.00</ele><time>2011-08-03T09:18:20Z</time></trkpt><trkpt lat="51.657614" lon="-2.273114"><ele>190.96</ele><time>2011-08-03T09:18:30Z</time></trkpt><trkpt lat="51.657578" lon="-2.273233"><ele>191.92</ele><time>2011-08-03T09:18:38Z</time></trkpt><trkpt lat="51.657524" lon="-2.273312"><ele>193.36</ele><time>2011-08-03T09:18:46Z</time></trkpt><trkpt lat="51.657458" lon="-2.273386"><ele>194.80</ele><time>2011-08-03T09:18:55Z</time></trkpt><trkpt lat="51.657406" lon="-2.273441"><ele>195.28</ele><time>2011-08-03T09:19:04Z</time></trkpt><trkpt lat="51.657361" lon="-2.273492"><ele>197.21</ele><time>2011-08-03T09:19:13Z</time></trkpt><trkpt lat="51.657326" lon="-2.273535"><ele>198.17</ele><time>2011-08-03T09:19:20Z</time></trkpt><trkpt lat="51.657280" lon="-2.273575"><ele>198.65</ele><time>2011-08-03T09:19:28Z</time></trkpt><trkpt lat="51.657236" lon="-2.273629"><ele>200.57</ele><time>2011-08-03T09:19:37Z</time></trkpt><trkpt lat="51.657180" lon="-2.273681"><ele>202.49</ele><time>2011-08-03T09:19:46Z</time></trkpt><trkpt lat="51.657133" lon="-2.273718"><ele>204.42</ele><time>2011-08-03T09:19:54Z</time></trkpt><trkpt lat="51.657095" lon="-2.273760"><ele>205.38</ele><time>2011-08-03T09:20:02Z</time></trkpt><trkpt lat="51.657041" lon="-2.273821"><ele>205.86</ele><time>2011-08-03T09:20:11Z</time></trkpt><trkpt lat="51.657003" lon="-2.273860"><ele>206.82</ele><time>2011-08-03T09:20:18Z</time></trkpt><trkpt lat="51.656946" lon="-2.273916"><ele>208.26</ele><time>2011-08-03T09:20:27Z</time></trkpt><trkpt lat="51.656889" lon="-2.273960"><ele>209.70</ele><time>2011-08-03T09:20:36Z</time></trkpt><trkpt lat="51.656839" lon="-2.274007"><ele>210.67</ele><time>2011-08-03T09:20:45Z</time></trkpt><trkpt lat="51.656795" lon="-2.274060"><ele>210.67</ele><time>2011-08-03T09:20:52Z</time></trkpt><trkpt lat="51.656745" lon="-2.274125"><ele>210.67</ele><time>2011-08-03T09:21:01Z</time></trkpt><trkpt lat="51.656711" lon="-2.274170"><ele>210.67</ele><time>2011-08-03T09:21:09Z</time></trkpt><trkpt lat="51.656668" lon="-2.274209"><ele>211.15</ele><time>2011-08-03T09:21:17Z</time></trkpt><trkpt lat="51.656628" lon="-2.274246"><ele>211.63</ele><time>2011-08-03T09:21:24Z</time></trkpt><trkpt lat="51.656586" lon="-2.274291"><ele>211.63</ele><time>2011-08-03T09:21:31Z</time></trkpt><trkpt lat="51.656539" lon="-2.274342"><ele>212.11</ele><time>2011-08-03T09:21:38Z</time></trkpt><trkpt lat="51.656509" lon="-2.274375"><ele>212.59</ele><time>2011-08-03T09:21:42Z</time></trkpt><trkpt lat="51.656446" lon="-2.274449"><ele>213.07</ele><time>2011-08-03T09:21:51Z</time></trkpt><trkpt lat="51.656387" lon="-2.274507"><ele>213.07</ele><time>2011-08-03T09:21:59Z</time></trkpt><trkpt lat="51.656327" lon="-2.274575"><ele>214.03</ele><time>2011-08-03T09:22:07Z</time></trkpt><trkpt lat="51.656258" lon="-2.274646"><ele>213.55</ele><time>2011-08-03T09:22:16Z</time></trkpt><trkpt lat="51.656197" lon="-2.274703"><ele>213.07</ele><time>2011-08-03T09:22:24Z</time></trkpt><trkpt lat="51.656127" lon="-2.274778"><ele>213.07</ele><time>2011-08-03T09:22:33Z</time></trkpt><trkpt lat="51.656066" lon="-2.274851"><ele>213.07</ele><time>2011-08-03T09:22:41Z</time></trkpt><trkpt lat="51.656003" lon="-2.274915"><ele>213.07</ele><time>2011-08-03T09:22:49Z</time></trkpt><trkpt lat="51.655924" lon="-2.274999"><ele>212.59</ele><time>2011-08-03T09:22:59Z</time></trkpt><trkpt lat="51.655853" lon="-2.275080"><ele>212.59</ele><time>2011-08-03T09:23:08Z</time></trkpt><trkpt lat="51.655778" lon="-2.275151"><ele>212.59</ele><time>2011-08-03T09:23:17Z</time></trkpt><trkpt lat="51.655707" lon="-2.275223"><ele>212.59</ele><time>2011-08-03T09:23:26Z</time></trkpt><trkpt lat="51.655642" lon="-2.275303"><ele>212.11</ele><time>2011-08-03T09:23:34Z</time></trkpt><trkpt lat="51.655576" lon="-2.275356"><ele>212.59</ele><time>2011-08-03T09:23:42Z</time></trkpt><trkpt lat="51.655562" lon="-2.275381"><ele>212.11</ele><time>2011-08-03T09:23:44Z</time></trkpt><trkpt lat="51.655529" lon="-2.275481"><ele>212.59</ele><time>2011-08-03T09:23:52Z</time></trkpt><trkpt lat="51.655499" lon="-2.275554"><ele>212.59</ele><time>2011-08-03T09:24:01Z</time></trkpt><trkpt lat="51.655480" lon="-2.275575"><ele>212.11</ele><time>2011-08-03T09:24:07Z</time></trkpt><trkpt lat="51.655419" lon="-2.275662"><ele>211.63</ele><time>2011-08-03T09:24:16Z</time></trkpt><trkpt lat="51.655363" lon="-2.275736"><ele>212.59</ele><time>2011-08-03T09:24:23Z</time></trkpt><trkpt lat="51.655293" lon="-2.275819"><ele>213.07</ele><time>2011-08-03T09:24:32Z</time></trkpt><trkpt lat="51.655242" lon="-2.275878"><ele>213.55</ele><time>2011-08-03T09:24:39Z</time></trkpt><trkpt lat="51.655174" lon="-2.275965"><ele>213.55</ele><time>2011-08-03T09:24:48Z</time></trkpt><trkpt lat="51.655128" lon="-2.276031"><ele>213.55</ele><time>2011-08-03T09:24:55Z</time></trkpt><trkpt lat="51.655084" lon="-2.276079"><ele>213.55</ele><time>2011-08-03T09:25:01Z</time></trkpt><trkpt lat="51.655032" lon="-2.276139"><ele>214.03</ele><time>2011-08-03T09:25:09Z</time></trkpt><trkpt lat="51.654982" lon="-2.276183"><ele>214.03</ele><time>2011-08-03T09:25:17Z</time></trkpt><trkpt lat="51.654943" lon="-2.276228"><ele>214.03</ele><time>2011-08-03T09:25:23Z</time></trkpt><trkpt lat="51.654888" lon="-2.276296"><ele>214.03</ele><time>2011-08-03T09:25:31Z</time></trkpt><trkpt lat="51.654852" lon="-2.276344"><ele>214.51</ele><time>2011-08-03T09:25:40Z</time></trkpt><trkpt lat="51.654769" lon="-2.276456"><ele>212.59</ele><time>2011-08-03T09:25:52Z</time></trkpt><trkpt lat="51.654653" lon="-2.276598"><ele>211.63</ele><time>2011-08-03T09:26:08Z</time></trkpt><trkpt lat="51.654582" lon="-2.276686"><ele>211.15</ele><time>2011-08-03T09:26:18Z</time></trkpt><trkpt lat="51.654526" lon="-2.276748"><ele>212.11</ele><time>2011-08-03T09:26:26Z</time></trkpt><trkpt lat="51.654420" lon="-2.276869"><ele>212.59</ele><time>2011-08-03T09:26:37Z</time></trkpt><trkpt lat="51.654335" lon="-2.276986"><ele>213.55</ele><time>2011-08-03T09:26:48Z</time></trkpt><trkpt lat="51.654271" lon="-2.277067"><ele>214.03</ele><time>2011-08-03T09:26:56Z</time></trkpt><trkpt lat="51.654196" lon="-2.277154"><ele>214.51</ele><time>2011-08-03T09:27:06Z</time></trkpt><trkpt lat="51.654142" lon="-2.277223"><ele>214.99</ele><time>2011-08-03T09:27:14Z</time></trkpt><trkpt lat="51.654074" lon="-2.277305"><ele>215.47</ele><time>2011-08-03T09:27:23Z</time></trkpt><trkpt lat="51.653984" lon="-2.277414"><ele>215.47</ele><time>2011-08-03T09:27:34Z</time></trkpt><trkpt lat="51.653914" lon="-2.277509"><ele>215.95</ele><time>2011-08-03T09:27:44Z</time></trkpt><trkpt lat="51.653837" lon="-2.277609"><ele>216.43</ele><time>2011-08-03T09:27:54Z</time></trkpt><trkpt lat="51.653749" lon="-2.277730"><ele>216.91</ele><time>2011-08-03T09:28:05Z</time></trkpt><trkpt lat="51.653691" lon="-2.277824"><ele>216.91</ele><time>2011-08-03T09:28:14Z</time></trkpt><trkpt lat="51.653624" lon="-2.277921"><ele>216.91</ele><time>2011-08-03T09:28:23Z</time></trkpt><trkpt lat="51.653549" lon="-2.278028"><ele>216.91</ele><time>2011-08-03T09:28:34Z</time></trkpt><trkpt lat="51.653504" lon="-2.278097"><ele>217.40</ele><time>2011-08-03T09:28:41Z</time></trkpt><trkpt lat="51.653440" lon="-2.278174"><ele>217.40</ele><time>2011-08-03T09:28:50Z</time></trkpt><trkpt lat="51.653366" lon="-2.278272"><ele>217.40</ele><time>2011-08-03T09:29:00Z</time></trkpt><trkpt lat="51.653302" lon="-2.278362"><ele>217.40</ele><time>2011-08-03T09:29:09Z</time></trkpt><trkpt lat="51.653231" lon="-2.278467"><ele>217.88</ele><time>2011-08-03T09:29:19Z</time></trkpt><trkpt lat="51.653178" lon="-2.278556"><ele>217.88</ele><time>2011-08-03T09:29:27Z</time></trkpt><trkpt lat="51.653112" lon="-2.278661"><ele>218.36</ele><time>2011-08-03T09:29:37Z</time></trkpt><trkpt lat="51.653051" lon="-2.278733"><ele>218.36</ele><time>2011-08-03T09:29:46Z</time></trkpt><trkpt lat="51.653020" lon="-2.278780"><ele>218.84</ele><time>2011-08-03T09:29:55Z</time></trkpt><trkpt lat="51.652936" lon="-2.278883"><ele>218.84</ele><time>2011-08-03T09:30:05Z</time></trkpt><trkpt lat="51.652872" lon="-2.278953"><ele>218.84</ele><time>2011-08-03T09:30:13Z</time></trkpt><trkpt lat="51.652832" lon="-2.278999"><ele>218.84</ele><time>2011-08-03T09:30:20Z</time></trkpt><trkpt lat="51.652740" lon="-2.279114"><ele>218.84</ele><time>2011-08-03T09:30:31Z</time></trkpt><trkpt lat="51.652665" lon="-2.279207"><ele>218.84</ele><time>2011-08-03T09:30:40Z</time></trkpt><trkpt lat="51.652578" lon="-2.279318"><ele>218.36</ele><time>2011-08-03T09:30:50Z</time></trkpt><trkpt lat="51.652489" lon="-2.279408"><ele>217.88</ele><time>2011-08-03T09:31:00Z</time></trkpt><trkpt lat="51.652425" lon="-2.279489"><ele>217.88</ele><time>2011-08-03T09:31:08Z</time></trkpt><trkpt lat="51.652393" lon="-2.279530"><ele>216.91</ele><time>2011-08-03T09:31:15Z</time></trkpt><trkpt lat="51.652402" lon="-2.279526"><ele>216.43</ele><time>2011-08-03T09:31:21Z</time></trkpt><trkpt lat="51.652325" lon="-2.279633"><ele>216.43</ele><time>2011-08-03T09:31:31Z</time></trkpt><trkpt lat="51.652266" lon="-2.279696"><ele>216.43</ele><time>2011-08-03T09:31:38Z</time></trkpt><trkpt lat="51.652205" lon="-2.279817"><ele>216.43</ele><time>2011-08-03T09:31:48Z</time></trkpt><trkpt lat="51.652178" lon="-2.279838"><ele>216.43</ele><time>2011-08-03T09:31:54Z</time></trkpt><trkpt lat="51.652162" lon="-2.279898"><ele>214.99</ele><time>2011-08-03T09:32:02Z</time></trkpt><trkpt lat="51.652151" lon="-2.279932"><ele>214.51</ele><time>2011-08-03T09:32:05Z</time></trkpt><trkpt lat="51.652052" lon="-2.279924"><ele>214.99</ele><time>2011-08-03T09:32:15Z</time></trkpt><trkpt lat="51.651966" lon="-2.279913"><ele>215.95</ele><time>2011-08-03T09:32:24Z</time></trkpt><trkpt lat="51.651866" lon="-2.279896"><ele>218.84</ele><time>2011-08-03T09:32:34Z</time></trkpt><trkpt lat="51.651767" lon="-2.279898"><ele>219.80</ele><time>2011-08-03T09:32:43Z</time></trkpt><trkpt lat="51.651691" lon="-2.279906"><ele>221.24</ele><time>2011-08-03T09:32:51Z</time></trkpt><trkpt lat="51.651599" lon="-2.279905"><ele>222.68</ele><time>2011-08-03T09:32:59Z</time></trkpt><trkpt lat="51.651523" lon="-2.279914"><ele>223.16</ele><time>2011-08-03T09:33:06Z</time></trkpt><trkpt lat="51.651407" lon="-2.279960"><ele>223.16</ele><time>2011-08-03T09:33:17Z</time></trkpt><trkpt lat="51.651322" lon="-2.279983"><ele>222.20</ele><time>2011-08-03T09:33:26Z</time></trkpt><trkpt lat="51.651240" lon="-2.280021"><ele>221.72</ele><time>2011-08-03T09:33:35Z</time></trkpt><trkpt lat="51.651124" lon="-2.280050"><ele>219.32</ele><time>2011-08-03T09:33:47Z</time></trkpt><trkpt lat="51.651034" lon="-2.280097"><ele>217.88</ele><time>2011-08-03T09:33:56Z</time></trkpt><trkpt lat="51.650952" lon="-2.280125"><ele>215.95</ele><time>2011-08-03T09:34:04Z</time></trkpt><trkpt lat="51.650876" lon="-2.280147"><ele>216.43</ele><time>2011-08-03T09:34:12Z</time></trkpt><trkpt lat="51.650803" lon="-2.280189"><ele>214.99</ele><time>2011-08-03T09:34:20Z</time></trkpt><trkpt lat="51.650700" lon="-2.280243"><ele>213.07</ele><time>2011-08-03T09:34:29Z</time></trkpt><trkpt lat="51.650598" lon="-2.280297"><ele>210.67</ele><time>2011-08-03T09:34:39Z</time></trkpt><trkpt lat="51.650505" lon="-2.280357"><ele>209.70</ele><time>2011-08-03T09:34:49Z</time></trkpt><trkpt lat="51.650412" lon="-2.280407"><ele>210.67</ele><time>2011-08-03T09:34:58Z</time></trkpt><trkpt lat="51.650291" lon="-2.280454"><ele>209.22</ele><time>2011-08-03T09:35:10Z</time></trkpt><trkpt lat="51.650218" lon="-2.280481"><ele>209.22</ele><time>2011-08-03T09:35:20Z</time></trkpt><trkpt lat="51.650107" lon="-2.280515"><ele>211.63</ele><time>2011-08-03T09:35:30Z</time></trkpt><trkpt lat="51.650031" lon="-2.280549"><ele>211.15</ele><time>2011-08-03T09:35:38Z</time></trkpt><trkpt lat="51.649941" lon="-2.280592"><ele>211.63</ele><time>2011-08-03T09:35:48Z</time></trkpt><trkpt lat="51.649831" lon="-2.280678"><ele>211.63</ele><time>2011-08-03T09:36:00Z</time></trkpt><trkpt lat="51.649737" lon="-2.280777"><ele>210.67</ele><time>2011-08-03T09:36:10Z</time></trkpt><trkpt lat="51.649655" lon="-2.280848"><ele>209.22</ele><time>2011-08-03T09:36:19Z</time></trkpt><trkpt lat="51.649580" lon="-2.280921"><ele>208.26</ele><time>2011-08-03T09:36:28Z</time></trkpt><trkpt lat="51.649505" lon="-2.280992"><ele>208.26</ele><time>2011-08-03T09:36:37Z</time></trkpt><trkpt lat="51.649425" lon="-2.281068"><ele>206.82</ele><time>2011-08-03T09:36:47Z</time></trkpt><trkpt lat="51.649319" lon="-2.281152"><ele>205.38</ele><time>2011-08-03T09:36:58Z</time></trkpt><trkpt lat="51.649213" lon="-2.281217"><ele>205.38</ele><time>2011-08-03T09:37:09Z</time></trkpt><trkpt lat="51.649120" lon="-2.281279"><ele>205.38</ele><time>2011-08-03T09:37:19Z</time></trkpt><trkpt lat="51.649018" lon="-2.281339"><ele>205.86</ele><time>2011-08-03T09:37:30Z</time></trkpt><trkpt lat="51.648921" lon="-2.281371"><ele>206.34</ele><time>2011-08-03T09:37:40Z</time></trkpt><trkpt lat="51.648855" lon="-2.281396"><ele>206.82</ele><time>2011-08-03T09:37:48Z</time></trkpt><trkpt lat="51.648764" lon="-2.281441"><ele>207.30</ele><time>2011-08-03T09:37:58Z</time></trkpt><trkpt lat="51.648673" lon="-2.281476"><ele>207.78</ele><time>2011-08-03T09:38:08Z</time></trkpt><trkpt lat="51.648590" lon="-2.281502"><ele>209.22</ele><time>2011-08-03T09:38:17Z</time></trkpt><trkpt lat="51.648518" lon="-2.281523"><ele>209.70</ele><time>2011-08-03T09:38:25Z</time></trkpt><trkpt lat="51.648432" lon="-2.281538"><ele>210.67</ele><time>2011-08-03T09:38:34Z</time></trkpt><trkpt lat="51.648356" lon="-2.281548"><ele>211.15</ele><time>2011-08-03T09:38:42Z</time></trkpt><trkpt lat="51.648272" lon="-2.281555"><ele>212.11</ele><time>2011-08-03T09:38:51Z</time></trkpt><trkpt lat="51.648180" lon="-2.281570"><ele>213.07</ele><time>2011-08-03T09:39:01Z</time></trkpt><trkpt lat="51.648113" lon="-2.281579"><ele>213.07</ele><time>2011-08-03T09:39:08Z</time></trkpt><trkpt lat="51.648066" lon="-2.281589"><ele>213.55</ele><time>2011-08-03T09:39:16Z</time></trkpt><trkpt lat="51.648071" lon="-2.281619"><ele>213.55</ele><time>2011-08-03T09:39:22Z</time></trkpt><trkpt lat="51.648060" lon="-2.281629"><ele>214.03</ele><time>2011-08-03T09:39:35Z</time></trkpt><trkpt lat="51.647996" lon="-2.281620"><ele>214.03</ele><time>2011-08-03T09:39:42Z</time></trkpt><trkpt lat="51.647921" lon="-2.281614"><ele>214.51</ele><time>2011-08-03T09:39:50Z</time></trkpt><trkpt lat="51.647828" lon="-2.281622"><ele>214.99</ele><time>2011-08-03T09:39:59Z</time></trkpt><trkpt lat="51.647736" lon="-2.281631"><ele>215.95</ele><time>2011-08-03T09:40:08Z</time></trkpt><trkpt lat="51.647603" lon="-2.281668"><ele>215.95</ele><time>2011-08-03T09:40:20Z</time></trkpt><trkpt lat="51.647490" lon="-2.281689"><ele>215.95</ele><time>2011-08-03T09:40:31Z</time></trkpt><trkpt lat="51.647400" lon="-2.281706"><ele>216.43</ele><time>2011-08-03T09:40:40Z</time></trkpt><trkpt lat="51.647289" lon="-2.281727"><ele>216.43</ele><time>2011-08-03T09:40:50Z</time></trkpt><trkpt lat="51.647196" lon="-2.281742"><ele>216.91</ele><time>2011-08-03T09:40:59Z</time></trkpt><trkpt lat="51.647097" lon="-2.281746"><ele>216.91</ele><time>2011-08-03T09:41:09Z</time></trkpt><trkpt lat="51.647005" lon="-2.281753"><ele>216.43</ele><time>2011-08-03T09:41:18Z</time></trkpt><trkpt lat="51.646901" lon="-2.281759"><ele>216.43</ele><time>2011-08-03T09:41:28Z</time></trkpt><trkpt lat="51.646811" lon="-2.281762"><ele>215.95</ele><time>2011-08-03T09:41:37Z</time></trkpt><trkpt lat="51.646736" lon="-2.281765"><ele>215.47</ele><time>2011-08-03T09:41:45Z</time></trkpt><trkpt lat="51.646645" lon="-2.281760"><ele>215.47</ele><time>2011-08-03T09:41:54Z</time></trkpt><trkpt lat="51.646547" lon="-2.281750"><ele>215.47</ele><time>2011-08-03T09:42:03Z</time></trkpt><trkpt lat="51.646445" lon="-2.281741"><ele>215.47</ele><time>2011-08-03T09:42:13Z</time></trkpt><trkpt lat="51.646342" lon="-2.281725"><ele>214.99</ele><time>2011-08-03T09:42:23Z</time></trkpt><trkpt lat="51.646243" lon="-2.281716"><ele>214.99</ele><time>2011-08-03T09:42:33Z</time></trkpt><trkpt lat="51.646139" lon="-2.281701"><ele>214.51</ele><time>2011-08-03T09:42:43Z</time></trkpt><trkpt lat="51.646053" lon="-2.281688"><ele>214.51</ele><time>2011-08-03T09:42:52Z</time></trkpt><trkpt lat="51.645968" lon="-2.281673"><ele>214.03</ele><time>2011-08-03T09:43:01Z</time></trkpt><trkpt lat="51.645865" lon="-2.281658"><ele>214.03</ele><time>2011-08-03T09:43:11Z</time></trkpt><trkpt lat="51.645779" lon="-2.281646"><ele>214.03</ele><time>2011-08-03T09:43:20Z</time></trkpt><trkpt lat="51.645689" lon="-2.281626"><ele>214.51</ele><time>2011-08-03T09:43:29Z</time></trkpt><trkpt lat="51.645595" lon="-2.281609"><ele>214.51</ele><time>2011-08-03T09:43:38Z</time></trkpt><trkpt lat="51.645485" lon="-2.281588"><ele>214.03</ele><time>2011-08-03T09:43:48Z</time></trkpt><trkpt lat="51.645388" lon="-2.281559"><ele>214.03</ele><time>2011-08-03T09:43:58Z</time></trkpt><trkpt lat="51.645302" lon="-2.281522"><ele>214.03</ele><time>2011-08-03T09:44:07Z</time></trkpt><trkpt lat="51.645203" lon="-2.281476"><ele>214.03</ele><time>2011-08-03T09:44:17Z</time></trkpt><trkpt lat="51.645107" lon="-2.281432"><ele>213.55</ele><time>2011-08-03T09:44:27Z</time></trkpt><trkpt lat="51.644995" lon="-2.281365"><ele>213.55</ele><time>2011-08-03T09:44:38Z</time></trkpt><trkpt lat="51.644879" lon="-2.281286"><ele>213.55</ele><time>2011-08-03T09:44:50Z</time></trkpt><trkpt lat="51.644784" lon="-2.281221"><ele>213.07</ele><time>2011-08-03T09:45:00Z</time></trkpt><trkpt lat="51.644680" lon="-2.281151"><ele>213.07</ele><time>2011-08-03T09:45:11Z</time></trkpt><trkpt lat="51.644576" lon="-2.281077"><ele>212.59</ele><time>2011-08-03T09:45:22Z</time></trkpt><trkpt lat="51.644486" lon="-2.280991"><ele>212.11</ele><time>2011-08-03T09:45:32Z</time></trkpt><trkpt lat="51.644393" lon="-2.280910"><ele>211.63</ele><time>2011-08-03T09:45:42Z</time></trkpt><trkpt lat="51.644303" lon="-2.280823"><ele>211.15</ele><time>2011-08-03T09:45:52Z</time></trkpt><trkpt lat="51.644188" lon="-2.280714"><ele>210.19</ele><time>2011-08-03T09:46:04Z</time></trkpt><trkpt lat="51.644138" lon="-2.280663"><ele>210.67</ele><time>2011-08-03T09:46:12Z</time></trkpt><trkpt lat="51.644106" lon="-2.280642"><ele>210.67</ele><time>2011-08-03T09:46:23Z</time></trkpt><trkpt lat="51.644018" lon="-2.280547"><ele>210.67</ele><time>2011-08-03T09:46:32Z</time></trkpt><trkpt lat="51.643927" lon="-2.280456"><ele>209.70</ele><time>2011-08-03T09:46:42Z</time></trkpt><trkpt lat="51.643833" lon="-2.280365"><ele>209.70</ele><time>2011-08-03T09:46:52Z</time></trkpt><trkpt lat="51.643745" lon="-2.280274"><ele>209.22</ele><time>2011-08-03T09:47:01Z</time></trkpt><trkpt lat="51.643643" lon="-2.280177"><ele>208.74</ele><time>2011-08-03T09:47:12Z</time></trkpt><trkpt lat="51.643564" lon="-2.280107"><ele>208.26</ele><time>2011-08-03T09:47:20Z</time></trkpt><trkpt lat="51.643466" lon="-2.280025"><ele>208.26</ele><time>2011-08-03T09:47:30Z</time></trkpt><trkpt lat="51.643370" lon="-2.279936"><ele>208.26</ele><time>2011-08-03T09:47:40Z</time></trkpt><trkpt lat="51.643247" lon="-2.279846"><ele>208.26</ele><time>2011-08-03T09:47:52Z</time></trkpt><trkpt lat="51.643136" lon="-2.279810"><ele>208.26</ele><time>2011-08-03T09:48:03Z</time></trkpt><trkpt lat="51.643078" lon="-2.279810"><ele>207.78</ele><time>2011-08-03T09:48:13Z</time></trkpt><trkpt lat="51.643034" lon="-2.279806"><ele>208.26</ele><time>2011-08-03T09:48:19Z</time></trkpt><trkpt lat="51.642975" lon="-2.279794"><ele>208.26</ele><time>2011-08-03T09:48:26Z</time></trkpt><trkpt lat="51.642909" lon="-2.279778"><ele>208.74</ele><time>2011-08-03T09:48:33Z</time></trkpt><trkpt lat="51.642847" lon="-2.279759"><ele>208.74</ele><time>2011-08-03T09:48:40Z</time></trkpt><trkpt lat="51.642784" lon="-2.279756"><ele>209.70</ele><time>2011-08-03T09:48:47Z</time></trkpt><trkpt lat="51.642704" lon="-2.279754"><ele>209.70</ele><time>2011-08-03T09:48:55Z</time></trkpt><trkpt lat="51.642635" lon="-2.279757"><ele>208.74</ele><time>2011-08-03T09:49:02Z</time></trkpt><trkpt lat="51.642566" lon="-2.279755"><ele>208.26</ele><time>2011-08-03T09:49:09Z</time></trkpt><trkpt lat="51.642497" lon="-2.279754"><ele>207.78</ele><time>2011-08-03T09:49:17Z</time></trkpt><trkpt lat="51.642427" lon="-2.279763"><ele>207.30</ele><time>2011-08-03T09:49:25Z</time></trkpt><trkpt lat="51.642397" lon="-2.279765"><ele>207.30</ele><time>2011-08-03T09:49:32Z</time></trkpt><trkpt lat="51.642392" lon="-2.279761"><ele>206.34</ele><time>2011-08-03T09:49:40Z</time></trkpt><trkpt lat="51.642386" lon="-2.279771"><ele>206.82</ele><time>2011-08-03T09:50:04Z</time></trkpt><trkpt lat="51.642376" lon="-2.279784"><ele>206.34</ele><time>2011-08-03T09:50:48Z</time></trkpt><trkpt lat="51.642372" lon="-2.279792"><ele>205.38</ele><time>2011-08-03T09:52:49Z</time></trkpt><trkpt lat="51.642332" lon="-2.279801"><ele>203.94</ele><time>2011-08-03T09:53:01Z</time></trkpt><trkpt lat="51.642265" lon="-2.279795"><ele>203.94</ele><time>2011-08-03T09:53:09Z</time></trkpt><trkpt lat="51.642203" lon="-2.279812"><ele>203.94</ele><time>2011-08-03T09:53:16Z</time></trkpt><trkpt lat="51.642099" lon="-2.279841"><ele>203.94</ele><time>2011-08-03T09:53:26Z</time></trkpt><trkpt lat="51.641968" lon="-2.279848"><ele>204.42</ele><time>2011-08-03T09:53:38Z</time></trkpt><trkpt lat="51.641854" lon="-2.279850"><ele>204.90</ele><time>2011-08-03T09:53:48Z</time></trkpt><trkpt lat="51.641742" lon="-2.279848"><ele>204.90</ele><time>2011-08-03T09:53:58Z</time></trkpt><trkpt lat="51.641597" lon="-2.279816"><ele>205.38</ele><time>2011-08-03T09:54:10Z</time></trkpt><trkpt lat="51.641482" lon="-2.279777"><ele>205.86</ele><time>2011-08-03T09:54:20Z</time></trkpt><trkpt lat="51.641374" lon="-2.279724"><ele>204.90</ele><time>2011-08-03T09:54:30Z</time></trkpt><trkpt lat="51.641282" lon="-2.279650"><ele>204.42</ele><time>2011-08-03T09:54:39Z</time></trkpt><trkpt lat="51.641145" lon="-2.279535"><ele>204.42</ele><time>2011-08-03T09:54:52Z</time></trkpt><trkpt lat="51.641043" lon="-2.279452"><ele>202.98</ele><time>2011-08-03T09:55:02Z</time></trkpt><trkpt lat="51.640896" lon="-2.279320"><ele>202.49</ele><time>2011-08-03T09:55:16Z</time></trkpt><trkpt lat="51.640852" lon="-2.279284"><ele>203.46</ele><time>2011-08-03T09:55:22Z</time></trkpt><trkpt lat="51.640853" lon="-2.279330"><ele>203.94</ele><time>2011-08-03T09:55:29Z</time></trkpt><trkpt lat="51.640855" lon="-2.279350"><ele>203.46</ele><time>2011-08-03T09:55:31Z</time></trkpt><trkpt lat="51.640799" lon="-2.279257"><ele>202.49</ele><time>2011-08-03T09:55:39Z</time></trkpt><trkpt lat="51.640720" lon="-2.279198"><ele>201.53</ele><time>2011-08-03T09:55:46Z</time></trkpt><trkpt lat="51.640620" lon="-2.279124"><ele>202.01</ele><time>2011-08-03T09:55:55Z</time></trkpt><trkpt lat="51.640527" lon="-2.279060"><ele>202.49</ele><time>2011-08-03T09:56:03Z</time></trkpt><trkpt lat="51.640397" lon="-2.278974"><ele>202.49</ele><time>2011-08-03T09:56:15Z</time></trkpt><trkpt lat="51.640270" lon="-2.278892"><ele>201.53</ele><time>2011-08-03T09:56:27Z</time></trkpt><trkpt lat="51.640165" lon="-2.278823"><ele>201.05</ele><time>2011-08-03T09:56:36Z</time></trkpt><trkpt lat="51.640040" lon="-2.278734"><ele>200.09</ele><time>2011-08-03T09:56:48Z</time></trkpt><trkpt lat="51.639926" lon="-2.278634"><ele>200.57</ele><time>2011-08-03T09:56:59Z</time></trkpt><trkpt lat="51.639850" lon="-2.278473"><ele>199.61</ele><time>2011-08-03T09:57:10Z</time></trkpt><trkpt lat="51.639817" lon="-2.278313"><ele>198.17</ele><time>2011-08-03T09:57:20Z</time></trkpt><trkpt lat="51.639782" lon="-2.278180"><ele>195.77</ele><time>2011-08-03T09:57:29Z</time></trkpt><trkpt lat="51.639749" lon="-2.278053"><ele>192.40</ele><time>2011-08-03T09:57:37Z</time></trkpt><trkpt lat="51.639722" lon="-2.277909"><ele>190.00</ele><time>2011-08-03T09:57:46Z</time></trkpt><trkpt lat="51.639670" lon="-2.277797"><ele>187.59</ele><time>2011-08-03T09:57:54Z</time></trkpt><trkpt lat="51.639628" lon="-2.277680"><ele>187.11</ele><time>2011-08-03T09:58:02Z</time></trkpt><trkpt lat="51.639556" lon="-2.277608"><ele>185.67</ele><time>2011-08-03T09:58:10Z</time></trkpt><trkpt lat="51.639472" lon="-2.277564"><ele>184.71</ele><time>2011-08-03T09:58:19Z</time></trkpt><trkpt lat="51.639374" lon="-2.277572"><ele>184.23</ele><time>2011-08-03T09:58:28Z</time></trkpt><trkpt lat="51.639304" lon="-2.277637"><ele>182.79</ele><time>2011-08-03T09:58:36Z</time></trkpt><trkpt lat="51.639194" lon="-2.277720"><ele>181.83</ele><time>2011-08-03T09:58:47Z</time></trkpt><trkpt lat="51.639096" lon="-2.277782"><ele>181.83</ele><time>2011-08-03T09:58:57Z</time></trkpt><trkpt lat="51.639014" lon="-2.277846"><ele>182.31</ele><time>2011-08-03T09:59:05Z</time></trkpt><trkpt lat="51.638924" lon="-2.277900"><ele>182.31</ele><time>2011-08-03T09:59:13Z</time></trkpt><trkpt lat="51.638831" lon="-2.277916"><ele>182.31</ele><time>2011-08-03T09:59:21Z</time></trkpt><trkpt lat="51.638713" lon="-2.277976"><ele>179.90</ele><time>2011-08-03T09:59:32Z</time></trkpt><trkpt lat="51.638583" lon="-2.278038"><ele>177.98</ele><time>2011-08-03T09:59:44Z</time></trkpt><trkpt lat="51.638505" lon="-2.278075"><ele>177.98</ele><time>2011-08-03T09:59:51Z</time></trkpt><trkpt lat="51.638357" lon="-2.278139"><ele>176.06</ele><time>2011-08-03T10:00:05Z</time></trkpt><trkpt lat="51.638235" lon="-2.278195"><ele>174.62</ele><time>2011-08-03T10:00:17Z</time></trkpt><trkpt lat="51.638142" lon="-2.278232"><ele>172.21</ele><time>2011-08-03T10:00:26Z</time></trkpt><trkpt lat="51.638046" lon="-2.278267"><ele>171.25</ele><time>2011-08-03T10:00:35Z</time></trkpt><trkpt lat="51.637977" lon="-2.278277"><ele>168.85</ele><time>2011-08-03T10:00:42Z</time></trkpt><trkpt lat="51.637871" lon="-2.278236"><ele>165.96</ele><time>2011-08-03T10:00:52Z</time></trkpt><trkpt lat="51.637799" lon="-2.278154"><ele>164.52</ele><time>2011-08-03T10:01:02Z</time></trkpt><trkpt lat="51.637769" lon="-2.278112"><ele>163.56</ele><time>2011-08-03T10:01:07Z</time></trkpt><trkpt lat="51.637743" lon="-2.278051"><ele>162.12</ele><time>2011-08-03T10:01:13Z</time></trkpt><trkpt lat="51.637734" lon="-2.277969"><ele>161.64</ele><time>2011-08-03T10:01:20Z</time></trkpt><trkpt lat="51.637692" lon="-2.277825"><ele>160.68</ele><time>2011-08-03T10:01:32Z</time></trkpt><trkpt lat="51.637685" lon="-2.277723"><ele>159.72</ele><time>2011-08-03T10:01:38Z</time></trkpt><trkpt lat="51.637691" lon="-2.277600"><ele>159.24</ele><time>2011-08-03T10:01:45Z</time></trkpt><trkpt lat="51.637675" lon="-2.277506"><ele>159.72</ele><time>2011-08-03T10:01:52Z</time></trkpt><trkpt lat="51.637644" lon="-2.277381"><ele>160.20</ele><time>2011-08-03T10:02:02Z</time></trkpt><trkpt lat="51.637639" lon="-2.277333"><ele>159.72</ele><time>2011-08-03T10:02:05Z</time></trkpt><trkpt lat="51.637651" lon="-2.277160"><ele>159.24</ele><time>2011-08-03T10:02:15Z</time></trkpt><trkpt lat="51.637645" lon="-2.277034"><ele>156.83</ele><time>2011-08-03T10:02:24Z</time></trkpt><trkpt lat="51.637624" lon="-2.276917"><ele>154.43</ele><time>2011-08-03T10:02:33Z</time></trkpt><trkpt lat="51.637590" lon="-2.276795"><ele>152.51</ele><time>2011-08-03T10:02:44Z</time></trkpt><trkpt lat="51.637582" lon="-2.276775"><ele>153.47</ele><time>2011-08-03T10:02:55Z</time></trkpt><trkpt lat="51.637550" lon="-2.276741"><ele>154.91</ele><time>2011-08-03T10:03:06Z</time></trkpt><trkpt lat="51.637511" lon="-2.276581"><ele>154.43</ele><time>2011-08-03T10:03:19Z</time></trkpt><trkpt lat="51.637429" lon="-2.276451"><ele>153.95</ele><time>2011-08-03T10:03:30Z</time></trkpt><trkpt lat="51.637370" lon="-2.276307"><ele>153.47</ele><time>2011-08-03T10:03:44Z</time></trkpt><trkpt lat="51.637361" lon="-2.276256"><ele>152.99</ele><time>2011-08-03T10:03:50Z</time></trkpt><trkpt lat="51.637281" lon="-2.276171"><ele>154.43</ele><time>2011-08-03T10:04:00Z</time></trkpt><trkpt lat="51.637183" lon="-2.276083"><ele>154.91</ele><time>2011-08-03T10:04:10Z</time></trkpt><trkpt lat="51.637115" lon="-2.276041"><ele>154.91</ele><time>2011-08-03T10:04:17Z</time></trkpt><trkpt lat="51.637014" lon="-2.275989"><ele>153.47</ele><time>2011-08-03T10:04:26Z</time></trkpt><trkpt lat="51.636946" lon="-2.275945"><ele>151.06</ele><time>2011-08-03T10:04:35Z</time></trkpt><trkpt lat="51.636868" lon="-2.275941"><ele>148.66</ele><time>2011-08-03T10:04:47Z</time></trkpt><trkpt lat="51.636771" lon="-2.275944"><ele>147.22</ele><time>2011-08-03T10:04:59Z</time></trkpt><trkpt lat="51.636686" lon="-2.275976"><ele>144.82</ele><time>2011-08-03T10:05:10Z</time></trkpt><trkpt lat="51.636606" lon="-2.275980"><ele>142.89</ele><time>2011-08-03T10:05:20Z</time></trkpt><trkpt lat="51.636499" lon="-2.275978"><ele>140.97</ele><time>2011-08-03T10:05:32Z</time></trkpt><trkpt lat="51.636439" lon="-2.275988"><ele>140.01</ele><time>2011-08-03T10:05:42Z</time></trkpt><trkpt lat="51.636338" lon="-2.276022"><ele>138.09</ele><time>2011-08-03T10:05:55Z</time></trkpt><trkpt lat="51.636231" lon="-2.276020"><ele>135.68</ele><time>2011-08-03T10:06:08Z</time></trkpt><trkpt lat="51.636172" lon="-2.276034"><ele>134.24</ele><time>2011-08-03T10:06:19Z</time></trkpt><trkpt lat="51.636122" lon="-2.276079"><ele>134.24</ele><time>2011-08-03T10:06:28Z</time></trkpt><trkpt lat="51.636009" lon="-2.276176"><ele>132.32</ele><time>2011-08-03T10:06:42Z</time></trkpt><trkpt lat="51.635919" lon="-2.276287"><ele>129.92</ele><time>2011-08-03T10:06:53Z</time></trkpt><trkpt lat="51.635896" lon="-2.276363"><ele>129.92</ele><time>2011-08-03T10:07:00Z</time></trkpt><trkpt lat="51.635835" lon="-2.276476"><ele>129.43</ele><time>2011-08-03T10:07:09Z</time></trkpt><trkpt lat="51.635827" lon="-2.276490"><ele>129.43</ele><time>2011-08-03T10:07:10Z</time></trkpt><trkpt lat="51.635784" lon="-2.276590"><ele>129.43</ele><time>2011-08-03T10:07:18Z</time></trkpt><trkpt lat="51.635736" lon="-2.276652"><ele>128.95</ele><time>2011-08-03T10:07:25Z</time></trkpt><trkpt lat="51.635703" lon="-2.276754"><ele>127.51</ele><time>2011-08-03T10:07:38Z</time></trkpt><trkpt lat="51.635658" lon="-2.276812"><ele>127.03</ele><time>2011-08-03T10:07:47Z</time></trkpt><trkpt lat="51.635612" lon="-2.276932"><ele>126.55</ele><time>2011-08-03T10:07:58Z</time></trkpt><trkpt lat="51.635551" lon="-2.277076"><ele>125.59</ele><time>2011-08-03T10:08:10Z</time></trkpt><trkpt lat="51.635507" lon="-2.277166"><ele>125.11</ele><time>2011-08-03T10:08:20Z</time></trkpt><trkpt lat="51.635446" lon="-2.277272"><ele>123.19</ele><time>2011-08-03T10:08:31Z</time></trkpt><trkpt lat="51.635404" lon="-2.277317"><ele>121.26</ele><time>2011-08-03T10:08:38Z</time></trkpt><trkpt lat="51.635329" lon="-2.277297"><ele>121.26</ele><time>2011-08-03T10:08:48Z</time></trkpt><trkpt lat="51.635254" lon="-2.277295"><ele>121.74</ele><time>2011-08-03T10:08:58Z</time></trkpt><trkpt lat="51.635179" lon="-2.277288"><ele>122.22</ele><time>2011-08-03T10:09:08Z</time></trkpt><trkpt lat="51.635157" lon="-2.277295"><ele>121.26</ele><time>2011-08-03T10:09:18Z</time></trkpt><trkpt lat="51.635169" lon="-2.277258"><ele>119.82</ele><time>2011-08-03T10:09:32Z</time></trkpt><trkpt lat="51.635162" lon="-2.277248"><ele>119.34</ele><time>2011-08-03T10:09:45Z</time></trkpt><trkpt lat="51.635140" lon="-2.277302"><ele>119.34</ele><time>2011-08-03T10:10:09Z</time></trkpt><trkpt lat="51.635144" lon="-2.277376"><ele>115.98</ele><time>2011-08-03T10:10:27Z</time></trkpt><trkpt lat="51.635137" lon="-2.277348"><ele>114.05</ele><time>2011-08-03T10:10:47Z</time></trkpt><trkpt lat="51.635151" lon="-2.277352"><ele>112.61</ele><time>2011-08-03T10:12:11Z</time></trkpt><trkpt lat="51.635152" lon="-2.277355"><ele>113.09</ele><time>2011-08-03T10:12:31Z</time></trkpt><trkpt lat="51.635155" lon="-2.277355"><ele>113.57</ele><time>2011-08-03T10:14:37Z</time></trkpt><trkpt lat="51.635160" lon="-2.277342"><ele>113.09</ele><time>2011-08-03T10:14:54Z</time></trkpt><trkpt lat="51.635166" lon="-2.277325"><ele>113.09</ele><time>2011-08-03T10:15:19Z</time></trkpt><trkpt lat="51.635175" lon="-2.277338"><ele>112.13</ele><time>2011-08-03T10:15:33Z</time></trkpt><trkpt lat="51.635141" lon="-2.277390"><ele>111.65</ele><time>2011-08-03T10:16:24Z</time></trkpt><trkpt lat="51.635159" lon="-2.277347"><ele>110.69</ele><time>2011-08-03T10:16:36Z</time></trkpt><trkpt lat="51.635191" lon="-2.277320"><ele>112.13</ele><time>2011-08-03T10:16:54Z</time></trkpt><trkpt lat="51.635197" lon="-2.277247"><ele>110.21</ele><time>2011-08-03T10:19:12Z</time></trkpt><trkpt lat="51.635203" lon="-2.277163"><ele>108.77</ele><time>2011-08-03T10:19:24Z</time></trkpt><trkpt lat="51.635164" lon="-2.277117"><ele>106.84</ele><time>2011-08-03T10:19:39Z</time></trkpt><trkpt lat="51.635164" lon="-2.277125"><ele>106.84</ele><time>2011-08-03T10:19:41Z</time></trkpt><trkpt lat="51.635180" lon="-2.277188"><ele>104.44</ele><time>2011-08-03T10:19:49Z</time></trkpt><trkpt lat="51.635183" lon="-2.277252"><ele>106.36</ele><time>2011-08-03T10:19:59Z</time></trkpt><trkpt lat="51.635250" lon="-2.277253"><ele>107.32</ele><time>2011-08-03T10:20:35Z</time></trkpt><trkpt lat="51.635286" lon="-2.277256"><ele>109.25</ele><time>2011-08-03T10:20:45Z</time></trkpt><trkpt lat="51.635321" lon="-2.277281"><ele>110.69</ele><time>2011-08-03T10:20:52Z</time></trkpt><trkpt lat="51.635380" lon="-2.277229"><ele>114.53</ele><time>2011-08-03T10:21:04Z</time></trkpt><trkpt lat="51.635425" lon="-2.277139"><ele>117.42</ele><time>2011-08-03T10:21:14Z</time></trkpt><trkpt lat="51.635448" lon="-2.277081"><ele>118.86</ele><time>2011-08-03T10:21:22Z</time></trkpt><trkpt lat="51.635502" lon="-2.276910"><ele>119.82</ele><time>2011-08-03T10:21:36Z</time></trkpt><trkpt lat="51.635527" lon="-2.276693"><ele>117.90</ele><time>2011-08-03T10:21:48Z</time></trkpt><trkpt lat="51.635535" lon="-2.276530"><ele>115.01</ele><time>2011-08-03T10:22:00Z</time></trkpt><trkpt lat="51.635558" lon="-2.276478"><ele>115.50</ele><time>2011-08-03T10:22:09Z</time></trkpt><trkpt lat="51.635574" lon="-2.276381"><ele>114.05</ele><time>2011-08-03T10:22:22Z</time></trkpt><trkpt lat="51.635567" lon="-2.276359"><ele>114.53</ele><time>2011-08-03T10:22:31Z</time></trkpt><trkpt lat="51.635585" lon="-2.276327"><ele>114.05</ele><time>2011-08-03T10:22:55Z</time></trkpt><trkpt lat="51.635630" lon="-2.276171"><ele>111.65</ele><time>2011-08-03T10:23:07Z</time></trkpt><trkpt lat="51.635658" lon="-2.276081"><ele>109.25</ele><time>2011-08-03T10:23:18Z</time></trkpt><trkpt lat="51.635721" lon="-2.275982"><ele>108.77</ele><time>2011-08-03T10:23:27Z</time></trkpt><trkpt lat="51.635781" lon="-2.275867"><ele>107.32</ele><time>2011-08-03T10:23:36Z</time></trkpt><trkpt lat="51.635817" lon="-2.275777"><ele>106.36</ele><time>2011-08-03T10:23:42Z</time></trkpt><trkpt lat="51.635916" lon="-2.275647"><ele>104.44</ele><time>2011-08-03T10:23:53Z</time></trkpt><trkpt lat="51.635985" lon="-2.275593"><ele>104.44</ele><time>2011-08-03T10:23:59Z</time></trkpt><trkpt lat="51.636047" lon="-2.275527"><ele>103.96</ele><time>2011-08-03T10:24:06Z</time></trkpt><trkpt lat="51.636115" lon="-2.275482"><ele>103.96</ele><time>2011-08-03T10:24:15Z</time></trkpt><trkpt lat="51.636189" lon="-2.275423"><ele>103.48</ele><time>2011-08-03T10:24:25Z</time></trkpt><trkpt lat="51.636259" lon="-2.275419"><ele>104.44</ele><time>2011-08-03T10:24:30Z</time></trkpt><trkpt lat="51.636318" lon="-2.275384"><ele>105.40</ele><time>2011-08-03T10:24:35Z</time></trkpt><trkpt lat="51.636380" lon="-2.275308"><ele>107.81</ele><time>2011-08-03T10:24:44Z</time></trkpt><trkpt lat="51.636397" lon="-2.275265"><ele>108.77</ele><time>2011-08-03T10:24:48Z</time></trkpt><trkpt lat="51.636479" lon="-2.275196"><ele>113.57</ele><time>2011-08-03T10:24:59Z</time></trkpt><trkpt lat="51.636546" lon="-2.275006"><ele>116.46</ele><time>2011-08-03T10:25:10Z</time></trkpt><trkpt lat="51.636617" lon="-2.274879"><ele>115.98</ele><time>2011-08-03T10:25:20Z</time></trkpt><trkpt lat="51.636642" lon="-2.274771"><ele>115.50</ele><time>2011-08-03T10:25:28Z</time></trkpt><trkpt lat="51.636661" lon="-2.274711"><ele>115.98</ele><time>2011-08-03T10:25:38Z</time></trkpt><trkpt lat="51.636680" lon="-2.274664"><ele>116.46</ele><time>2011-08-03T10:25:45Z</time></trkpt><trkpt lat="51.636735" lon="-2.274608"><ele>115.98</ele><time>2011-08-03T10:25:53Z</time></trkpt><trkpt lat="51.636823" lon="-2.274610"><ele>115.01</ele><time>2011-08-03T10:26:05Z</time></trkpt><trkpt lat="51.636882" lon="-2.274604"><ele>114.53</ele><time>2011-08-03T10:26:15Z</time></trkpt><trkpt lat="51.636954" lon="-2.274510"><ele>115.50</ele><time>2011-08-03T10:26:26Z</time></trkpt><trkpt lat="51.637040" lon="-2.274444"><ele>116.94</ele><time>2011-08-03T10:26:36Z</time></trkpt><trkpt lat="51.637065" lon="-2.274300"><ele>116.94</ele><time>2011-08-03T10:26:47Z</time></trkpt><trkpt lat="51.637094" lon="-2.274227"><ele>115.98</ele><time>2011-08-03T10:26:58Z</time></trkpt><trkpt lat="51.637165" lon="-2.274133"><ele>114.53</ele><time>2011-08-03T10:27:07Z</time></trkpt><trkpt lat="51.637205" lon="-2.274052"><ele>115.50</ele><time>2011-08-03T10:27:17Z</time></trkpt><trkpt lat="51.637309" lon="-2.274027"><ele>116.94</ele><time>2011-08-03T10:27:26Z</time></trkpt><trkpt lat="51.637398" lon="-2.274022"><ele>117.90</ele><time>2011-08-03T10:27:36Z</time></trkpt><trkpt lat="51.637459" lon="-2.273893"><ele>116.94</ele><time>2011-08-03T10:27:45Z</time></trkpt><trkpt lat="51.637519" lon="-2.273745"><ele>116.94</ele><time>2011-08-03T10:27:57Z</time></trkpt><trkpt lat="51.637569" lon="-2.273567"><ele>116.94</ele><time>2011-08-03T10:28:10Z</time></trkpt><trkpt lat="51.637570" lon="-2.273528"><ele>117.90</ele><time>2011-08-03T10:28:17Z</time></trkpt><trkpt lat="51.637592" lon="-2.273466"><ele>118.38</ele><time>2011-08-03T10:28:24Z</time></trkpt><trkpt lat="51.637638" lon="-2.273279"><ele>117.90</ele><time>2011-08-03T10:28:34Z</time></trkpt><trkpt lat="51.637665" lon="-2.273225"><ele>117.90</ele><time>2011-08-03T10:28:42Z</time></trkpt><trkpt lat="51.637682" lon="-2.273189"><ele>119.34</ele><time>2011-08-03T10:28:53Z</time></trkpt><trkpt lat="51.637745" lon="-2.273185"><ele>120.78</ele><time>2011-08-03T10:29:05Z</time></trkpt><trkpt lat="51.637777" lon="-2.273212"><ele>121.74</ele><time>2011-08-03T10:29:13Z</time></trkpt><trkpt lat="51.637828" lon="-2.273133"><ele>121.26</ele><time>2011-08-03T10:29:24Z</time></trkpt><trkpt lat="51.637879" lon="-2.273051"><ele>118.86</ele><time>2011-08-03T10:29:32Z</time></trkpt><trkpt lat="51.637922" lon="-2.272964"><ele>119.34</ele><time>2011-08-03T10:29:43Z</time></trkpt><trkpt lat="51.637938" lon="-2.272844"><ele>120.30</ele><time>2011-08-03T10:29:54Z</time></trkpt><trkpt lat="51.637961" lon="-2.272701"><ele>122.22</ele><time>2011-08-03T10:30:06Z</time></trkpt><trkpt lat="51.637983" lon="-2.272615"><ele>122.22</ele><time>2011-08-03T10:30:16Z</time></trkpt><trkpt lat="51.637989" lon="-2.272517"><ele>122.22</ele><time>2011-08-03T10:30:26Z</time></trkpt><trkpt lat="51.638005" lon="-2.272403"><ele>120.78</ele><time>2011-08-03T10:30:36Z</time></trkpt><trkpt lat="51.638069" lon="-2.272361"><ele>118.86</ele><time>2011-08-03T10:30:50Z</time></trkpt><trkpt lat="51.638086" lon="-2.272365"><ele>116.46</ele><time>2011-08-03T10:30:59Z</time></trkpt><trkpt lat="51.638085" lon="-2.272263"><ele>114.53</ele><time>2011-08-03T10:31:11Z</time></trkpt><trkpt lat="51.638104" lon="-2.272179"><ele>115.01</ele><time>2011-08-03T10:31:18Z</time></trkpt><trkpt lat="51.638216" lon="-2.272124"><ele>115.50</ele><time>2011-08-03T10:31:28Z</time></trkpt><trkpt lat="51.638220" lon="-2.272041"><ele>117.90</ele><time>2011-08-03T10:31:36Z</time></trkpt><trkpt lat="51.638226" lon="-2.271898"><ele>120.78</ele><time>2011-08-03T10:31:46Z</time></trkpt><trkpt lat="51.638205" lon="-2.271650"><ele>123.67</ele><time>2011-08-03T10:31:59Z</time></trkpt><trkpt lat="51.638232" lon="-2.271557"><ele>126.55</ele><time>2011-08-03T10:32:10Z</time></trkpt><trkpt lat="51.638269" lon="-2.271445"><ele>127.51</ele><time>2011-08-03T10:32:20Z</time></trkpt><trkpt lat="51.638311" lon="-2.271318"><ele>128.95</ele><time>2011-08-03T10:32:31Z</time></trkpt><trkpt lat="51.638334" lon="-2.271258"><ele>129.92</ele><time>2011-08-03T10:32:39Z</time></trkpt><trkpt lat="51.638352" lon="-2.271178"><ele>129.92</ele><time>2011-08-03T10:32:48Z</time></trkpt><trkpt lat="51.638361" lon="-2.271093"><ele>129.43</ele><time>2011-08-03T10:32:56Z</time></trkpt><trkpt lat="51.638384" lon="-2.270989"><ele>129.43</ele><time>2011-08-03T10:33:06Z</time></trkpt><trkpt lat="51.638430" lon="-2.270935"><ele>131.36</ele><time>2011-08-03T10:33:16Z</time></trkpt><trkpt lat="51.638452" lon="-2.270890"><ele>132.80</ele><time>2011-08-03T10:33:23Z</time></trkpt><trkpt lat="51.638532" lon="-2.270807"><ele>134.72</ele><time>2011-08-03T10:33:34Z</time></trkpt><trkpt lat="51.638547" lon="-2.270787"><ele>134.72</ele><time>2011-08-03T10:33:36Z</time></trkpt><trkpt lat="51.638625" lon="-2.270688"><ele>136.64</ele><time>2011-08-03T10:33:45Z</time></trkpt><trkpt lat="51.638649" lon="-2.270613"><ele>135.68</ele><time>2011-08-03T10:33:52Z</time></trkpt><trkpt lat="51.638700" lon="-2.270505"><ele>133.28</ele><time>2011-08-03T10:34:02Z</time></trkpt><trkpt lat="51.638728" lon="-2.270395"><ele>132.32</ele><time>2011-08-03T10:34:13Z</time></trkpt><trkpt lat="51.638813" lon="-2.270358"><ele>133.28</ele><time>2011-08-03T10:34:23Z</time></trkpt><trkpt lat="51.638910" lon="-2.270226"><ele>132.32</ele><time>2011-08-03T10:34:35Z</time></trkpt><trkpt lat="51.638919" lon="-2.270140"><ele>132.80</ele><time>2011-08-03T10:34:43Z</time></trkpt><trkpt lat="51.638933" lon="-2.270055"><ele>134.24</ele><time>2011-08-03T10:34:51Z</time></trkpt><trkpt lat="51.638967" lon="-2.269982"><ele>134.24</ele><time>2011-08-03T10:34:58Z</time></trkpt><trkpt lat="51.639005" lon="-2.269966"><ele>133.28</ele><time>2011-08-03T10:35:08Z</time></trkpt><trkpt lat="51.639020" lon="-2.269931"><ele>131.84</ele><time>2011-08-03T10:35:32Z</time></trkpt><trkpt lat="51.639067" lon="-2.269847"><ele>132.32</ele><time>2011-08-03T10:35:41Z</time></trkpt><trkpt lat="51.639102" lon="-2.269783"><ele>131.84</ele><time>2011-08-03T10:35:48Z</time></trkpt><trkpt lat="51.639128" lon="-2.269715"><ele>129.92</ele><time>2011-08-03T10:35:59Z</time></trkpt><trkpt lat="51.639154" lon="-2.269646"><ele>125.59</ele><time>2011-08-03T10:36:13Z</time></trkpt><trkpt lat="51.639225" lon="-2.269492"><ele>123.67</ele><time>2011-08-03T10:36:22Z</time></trkpt><trkpt lat="51.639256" lon="-2.269427"><ele>124.15</ele><time>2011-08-03T10:36:28Z</time></trkpt><trkpt lat="51.639283" lon="-2.269367"><ele>124.15</ele><time>2011-08-03T10:36:34Z</time></trkpt><trkpt lat="51.639314" lon="-2.269302"><ele>123.67</ele><time>2011-08-03T10:36:42Z</time></trkpt><trkpt lat="51.639339" lon="-2.269233"><ele>123.67</ele><time>2011-08-03T10:36:49Z</time></trkpt><trkpt lat="51.639372" lon="-2.269163"><ele>122.71</ele><time>2011-08-03T10:36:56Z</time></trkpt><trkpt lat="51.639392" lon="-2.269089"><ele>122.71</ele><time>2011-08-03T10:37:02Z</time></trkpt><trkpt lat="51.639413" lon="-2.269002"><ele>121.74</ele><time>2011-08-03T10:37:09Z</time></trkpt><trkpt lat="51.639431" lon="-2.268913"><ele>121.74</ele><time>2011-08-03T10:37:17Z</time></trkpt><trkpt lat="51.639425" lon="-2.268826"><ele>121.26</ele><time>2011-08-03T10:37:25Z</time></trkpt><trkpt lat="51.639441" lon="-2.268720"><ele>120.78</ele><time>2011-08-03T10:37:32Z</time></trkpt><trkpt lat="51.639439" lon="-2.268605"><ele>119.34</ele><time>2011-08-03T10:37:39Z</time></trkpt><trkpt lat="51.639452" lon="-2.268499"><ele>121.26</ele><time>2011-08-03T10:37:46Z</time></trkpt><trkpt lat="51.639507" lon="-2.268401"><ele>125.11</ele><time>2011-08-03T10:37:54Z</time></trkpt><trkpt lat="51.639535" lon="-2.268317"><ele>126.55</ele><time>2011-08-03T10:38:01Z</time></trkpt><trkpt lat="51.639556" lon="-2.268248"><ele>127.03</ele><time>2011-08-03T10:38:07Z</time></trkpt><trkpt lat="51.639583" lon="-2.268176"><ele>127.03</ele><time>2011-08-03T10:38:14Z</time></trkpt><trkpt lat="51.639606" lon="-2.268094"><ele>124.15</ele><time>2011-08-03T10:38:22Z</time></trkpt><trkpt lat="51.639644" lon="-2.267998"><ele>125.11</ele><time>2011-08-03T10:38:30Z</time></trkpt><trkpt lat="51.639665" lon="-2.267927"><ele>125.11</ele><time>2011-08-03T10:38:36Z</time></trkpt><trkpt lat="51.639696" lon="-2.267854"><ele>126.07</ele><time>2011-08-03T10:38:42Z</time></trkpt><trkpt lat="51.639698" lon="-2.267840"><ele>126.55</ele><time>2011-08-03T10:38:43Z</time></trkpt><trkpt lat="51.639715" lon="-2.267750"><ele>127.51</ele><time>2011-08-03T10:38:49Z</time></trkpt><trkpt lat="51.639719" lon="-2.267729"><ele>127.99</ele><time>2011-08-03T10:38:51Z</time></trkpt><trkpt lat="51.639722" lon="-2.267646"><ele>130.40</ele><time>2011-08-03T10:39:00Z</time></trkpt><trkpt lat="51.639718" lon="-2.267571"><ele>130.88</ele><time>2011-08-03T10:39:08Z</time></trkpt><trkpt lat="51.639706" lon="-2.267453"><ele>132.80</ele><time>2011-08-03T10:39:19Z</time></trkpt><trkpt lat="51.639717" lon="-2.267353"><ele>132.32</ele><time>2011-08-03T10:39:27Z</time></trkpt><trkpt lat="51.639754" lon="-2.267203"><ele>129.92</ele><time>2011-08-03T10:39:40Z</time></trkpt><trkpt lat="51.639776" lon="-2.267099"><ele>127.99</ele><time>2011-08-03T10:39:49Z</time></trkpt><trkpt lat="51.639823" lon="-2.266994"><ele>125.59</ele><time>2011-08-03T10:40:00Z</time></trkpt><trkpt lat="51.639873" lon="-2.266908"><ele>124.63</ele><time>2011-08-03T10:40:10Z</time></trkpt><trkpt lat="51.639936" lon="-2.266838"><ele>125.59</ele><time>2011-08-03T10:40:20Z</time></trkpt><trkpt lat="51.639979" lon="-2.266756"><ele>124.63</ele><time>2011-08-03T10:40:30Z</time></trkpt><trkpt lat="51.639967" lon="-2.266674"><ele>126.55</ele><time>2011-08-03T10:40:41Z</time></trkpt><trkpt lat="51.639978" lon="-2.266654"><ele>127.51</ele><time>2011-08-03T10:40:52Z</time></trkpt><trkpt lat="51.640005" lon="-2.266603"><ele>127.99</ele><time>2011-08-03T10:41:03Z</time></trkpt><trkpt lat="51.639986" lon="-2.266597"><ele>128.47</ele><time>2011-08-03T10:41:14Z</time></trkpt><trkpt lat="51.640007" lon="-2.266574"><ele>128.95</ele><time>2011-08-03T10:41:22Z</time></trkpt><trkpt lat="51.640012" lon="-2.266561"><ele>128.95</ele><time>2011-08-03T10:41:23Z</time></trkpt><trkpt lat="51.640031" lon="-2.266381"><ele>127.99</ele><time>2011-08-03T10:41:34Z</time></trkpt><trkpt lat="51.640116" lon="-2.266244"><ele>126.55</ele><time>2011-08-03T10:41:52Z</time></trkpt><trkpt lat="51.640155" lon="-2.266155"><ele>127.51</ele><time>2011-08-03T10:42:00Z</time></trkpt><trkpt lat="51.640200" lon="-2.266057"><ele>130.88</ele><time>2011-08-03T10:42:10Z</time></trkpt><trkpt lat="51.640234" lon="-2.265909"><ele>130.88</ele><time>2011-08-03T10:42:22Z</time></trkpt><trkpt lat="51.640194" lon="-2.265760"><ele>131.84</ele><time>2011-08-03T10:42:29Z</time></trkpt><trkpt lat="51.640208" lon="-2.265679"><ele>132.32</ele><time>2011-08-03T10:42:37Z</time></trkpt><trkpt lat="51.640222" lon="-2.265575"><ele>131.84</ele><time>2011-08-03T10:42:45Z</time></trkpt><trkpt lat="51.640232" lon="-2.265470"><ele>131.84</ele><time>2011-08-03T10:42:52Z</time></trkpt><trkpt lat="51.640258" lon="-2.265349"><ele>132.80</ele><time>2011-08-03T10:43:00Z</time></trkpt><trkpt lat="51.640265" lon="-2.265271"><ele>133.28</ele><time>2011-08-03T10:43:08Z</time></trkpt><trkpt lat="51.640274" lon="-2.265183"><ele>132.80</ele><time>2011-08-03T10:43:15Z</time></trkpt><trkpt lat="51.640270" lon="-2.265065"><ele>131.36</ele><time>2011-08-03T10:43:22Z</time></trkpt><trkpt lat="51.640267" lon="-2.264971"><ele>131.36</ele><time>2011-08-03T10:43:29Z</time></trkpt><trkpt lat="51.640273" lon="-2.264885"><ele>131.36</ele><time>2011-08-03T10:43:36Z</time></trkpt><trkpt lat="51.640298" lon="-2.264797"><ele>132.32</ele><time>2011-08-03T10:43:44Z</time></trkpt><trkpt lat="51.640332" lon="-2.264690"><ele>133.28</ele><time>2011-08-03T10:43:53Z</time></trkpt><trkpt lat="51.640354" lon="-2.264601"><ele>133.76</ele><time>2011-08-03T10:44:01Z</time></trkpt><trkpt lat="51.640376" lon="-2.264507"><ele>133.76</ele><time>2011-08-03T10:44:08Z</time></trkpt><trkpt lat="51.640404" lon="-2.264397"><ele>133.76</ele><time>2011-08-03T10:44:17Z</time></trkpt><trkpt lat="51.640436" lon="-2.264300"><ele>134.24</ele><time>2011-08-03T10:44:25Z</time></trkpt><trkpt lat="51.640476" lon="-2.264189"><ele>135.20</ele><time>2011-08-03T10:44:34Z</time></trkpt><trkpt lat="51.640505" lon="-2.264126"><ele>135.20</ele><time>2011-08-03T10:44:40Z</time></trkpt><trkpt lat="51.640549" lon="-2.263998"><ele>136.64</ele><time>2011-08-03T10:44:50Z</time></trkpt><trkpt lat="51.640577" lon="-2.263920"><ele>136.64</ele><time>2011-08-03T10:44:57Z</time></trkpt><trkpt lat="51.640609" lon="-2.263836"><ele>137.13</ele><time>2011-08-03T10:45:05Z</time></trkpt><trkpt lat="51.640648" lon="-2.263760"><ele>138.09</ele><time>2011-08-03T10:45:12Z</time></trkpt><trkpt lat="51.640700" lon="-2.263660"><ele>138.09</ele><time>2011-08-03T10:45:22Z</time></trkpt><trkpt lat="51.640722" lon="-2.263611"><ele>138.57</ele><time>2011-08-03T10:45:29Z</time></trkpt><trkpt lat="51.640785" lon="-2.263505"><ele>139.05</ele><time>2011-08-03T10:45:38Z</time></trkpt><trkpt lat="51.640835" lon="-2.263426"><ele>139.53</ele><time>2011-08-03T10:45:46Z</time></trkpt><trkpt lat="51.640886" lon="-2.263366"><ele>140.01</ele><time>2011-08-03T10:45:54Z</time></trkpt><trkpt lat="51.640955" lon="-2.263318"><ele>140.97</ele><time>2011-08-03T10:46:02Z</time></trkpt><trkpt lat="51.641003" lon="-2.263268"><ele>141.45</ele><time>2011-08-03T10:46:09Z</time></trkpt><trkpt lat="51.641045" lon="-2.263226"><ele>141.93</ele><time>2011-08-03T10:46:16Z</time></trkpt><trkpt lat="51.641097" lon="-2.263185"><ele>143.37</ele><time>2011-08-03T10:46:24Z</time></trkpt><trkpt lat="51.641181" lon="-2.263100"><ele>144.82</ele><time>2011-08-03T10:46:36Z</time></trkpt><trkpt lat="51.641236" lon="-2.263072"><ele>145.78</ele><time>2011-08-03T10:46:44Z</time></trkpt><trkpt lat="51.641282" lon="-2.263047"><ele>146.26</ele><time>2011-08-03T10:46:50Z</time></trkpt><trkpt lat="51.641350" lon="-2.263000"><ele>147.22</ele><time>2011-08-03T10:46:58Z</time></trkpt><trkpt lat="51.641413" lon="-2.262973"><ele>147.22</ele><time>2011-08-03T10:47:06Z</time></trkpt><trkpt lat="51.641473" lon="-2.262928"><ele>146.74</ele><time>2011-08-03T10:47:14Z</time></trkpt><trkpt lat="51.641531" lon="-2.262888"><ele>146.74</ele><time>2011-08-03T10:47:21Z</time></trkpt><trkpt lat="51.641600" lon="-2.262849"><ele>148.18</ele><time>2011-08-03T10:47:29Z</time></trkpt><trkpt lat="51.641667" lon="-2.262810"><ele>148.18</ele><time>2011-08-03T10:47:37Z</time></trkpt><trkpt lat="51.641720" lon="-2.262761"><ele>148.66</ele><time>2011-08-03T10:47:44Z</time></trkpt><trkpt lat="51.641789" lon="-2.262699"><ele>149.14</ele><time>2011-08-03T10:47:53Z</time></trkpt><trkpt lat="51.641843" lon="-2.262657"><ele>149.62</ele><time>2011-08-03T10:48:00Z</time></trkpt><trkpt lat="51.641903" lon="-2.262608"><ele>149.62</ele><time>2011-08-03T10:48:08Z</time></trkpt><trkpt lat="51.641961" lon="-2.262555"><ele>150.10</ele><time>2011-08-03T10:48:15Z</time></trkpt><trkpt lat="51.642027" lon="-2.262502"><ele>151.06</ele><time>2011-08-03T10:48:24Z</time></trkpt><trkpt lat="51.642064" lon="-2.262471"><ele>151.06</ele><time>2011-08-03T10:48:30Z</time></trkpt><trkpt lat="51.642129" lon="-2.262430"><ele>151.54</ele><time>2011-08-03T10:48:39Z</time></trkpt><trkpt lat="51.642198" lon="-2.262405"><ele>152.03</ele><time>2011-08-03T10:48:47Z</time></trkpt><trkpt lat="51.642266" lon="-2.262392"><ele>152.99</ele><time>2011-08-03T10:48:55Z</time></trkpt><trkpt lat="51.642337" lon="-2.262381"><ele>153.47</ele><time>2011-08-03T10:49:04Z</time></trkpt><trkpt lat="51.642397" lon="-2.262375"><ele>153.47</ele><time>2011-08-03T10:49:12Z</time></trkpt><trkpt lat="51.642497" lon="-2.262384"><ele>154.91</ele><time>2011-08-03T10:49:24Z</time></trkpt><trkpt lat="51.642569" lon="-2.262393"><ele>155.39</ele><time>2011-08-03T10:49:33Z</time></trkpt><trkpt lat="51.642646" lon="-2.262379"><ele>154.91</ele><time>2011-08-03T10:49:42Z</time></trkpt><trkpt lat="51.642673" lon="-2.262374"><ele>154.91</ele><time>2011-08-03T10:49:45Z</time></trkpt><trkpt lat="51.642730" lon="-2.262404"><ele>155.39</ele><time>2011-08-03T10:49:53Z</time></trkpt><trkpt lat="51.642754" lon="-2.262402"><ele>156.35</ele><time>2011-08-03T10:50:04Z</time></trkpt><trkpt lat="51.642783" lon="-2.262380"><ele>155.39</ele><time>2011-08-03T10:50:14Z</time></trkpt><trkpt lat="51.642826" lon="-2.262386"><ele>156.83</ele><time>2011-08-03T10:50:26Z</time></trkpt><trkpt lat="51.642871" lon="-2.262445"><ele>157.31</ele><time>2011-08-03T10:50:35Z</time></trkpt><trkpt lat="51.642898" lon="-2.262487"><ele>158.75</ele><time>2011-08-03T10:50:42Z</time></trkpt><trkpt lat="51.642945" lon="-2.262543"><ele>160.20</ele><time>2011-08-03T10:50:50Z</time></trkpt><trkpt lat="51.642996" lon="-2.262574"><ele>160.68</ele><time>2011-08-03T10:50:59Z</time></trkpt><trkpt lat="51.643040" lon="-2.262597"><ele>160.68</ele><time>2011-08-03T10:51:07Z</time></trkpt><trkpt lat="51.643091" lon="-2.262623"><ele>160.20</ele><time>2011-08-03T10:51:14Z</time></trkpt><trkpt lat="51.643100" lon="-2.262627"><ele>160.20</ele><time>2011-08-03T10:51:15Z</time></trkpt><trkpt lat="51.643170" lon="-2.262624"><ele>160.20</ele><time>2011-08-03T10:51:23Z</time></trkpt><trkpt lat="51.643182" lon="-2.262615"><ele>160.68</ele><time>2011-08-03T10:51:29Z</time></trkpt><trkpt lat="51.643217" lon="-2.262627"><ele>160.68</ele><time>2011-08-03T10:51:35Z</time></trkpt><trkpt lat="51.643283" lon="-2.262639"><ele>160.68</ele><time>2011-08-03T10:51:42Z</time></trkpt><trkpt lat="51.643337" lon="-2.262652"><ele>161.16</ele><time>2011-08-03T10:51:48Z</time></trkpt><trkpt lat="51.643403" lon="-2.262659"><ele>160.68</ele><time>2011-08-03T10:51:55Z</time></trkpt><trkpt lat="51.643422" lon="-2.262666"><ele>160.68</ele><time>2011-08-03T10:51:57Z</time></trkpt><trkpt lat="51.643478" lon="-2.262701"><ele>161.64</ele><time>2011-08-03T10:52:06Z</time></trkpt><trkpt lat="51.643538" lon="-2.262713"><ele>162.60</ele><time>2011-08-03T10:52:16Z</time></trkpt><trkpt lat="51.643597" lon="-2.262736"><ele>162.12</ele><time>2011-08-03T10:52:23Z</time></trkpt><trkpt lat="51.643619" lon="-2.262722"><ele>162.12</ele><time>2011-08-03T10:52:31Z</time></trkpt><trkpt lat="51.643626" lon="-2.262714"><ele>162.12</ele><time>2011-08-03T10:52:42Z</time></trkpt><trkpt lat="51.643753" lon="-2.262635"><ele>160.68</ele><time>2011-08-03T10:52:56Z</time></trkpt><trkpt lat="51.643752" lon="-2.262633"><ele>161.16</ele><time>2011-08-03T10:53:33Z</time></trkpt><trkpt lat="51.643754" lon="-2.262639"><ele>161.16</ele><time>2011-08-03T10:53:38Z</time></trkpt><trkpt lat="51.643809" lon="-2.262805"><ele>161.16</ele><time>2011-08-03T10:53:52Z</time></trkpt><trkpt lat="51.643872" lon="-2.262887"><ele>163.08</ele><time>2011-08-03T10:53:59Z</time></trkpt><trkpt lat="51.643981" lon="-2.263014"><ele>167.41</ele><time>2011-08-03T10:54:12Z</time></trkpt><trkpt lat="51.644043" lon="-2.263092"><ele>168.85</ele><time>2011-08-03T10:54:21Z</time></trkpt><trkpt lat="51.644040" lon="-2.263083"><ele>169.33</ele><time>2011-08-03T10:54:40Z</time></trkpt><trkpt lat="51.644119" lon="-2.263170"><ele>169.33</ele><time>2011-08-03T10:54:51Z</time></trkpt><trkpt lat="51.644132" lon="-2.263193"><ele>169.33</ele><time>2011-08-03T10:54:53Z</time></trkpt><trkpt lat="51.644202" lon="-2.263272"><ele>171.25</ele><time>2011-08-03T10:55:02Z</time></trkpt><trkpt lat="51.644319" lon="-2.263359"><ele>175.10</ele><time>2011-08-03T10:55:14Z</time></trkpt><trkpt lat="51.644398" lon="-2.263427"><ele>177.98</ele><time>2011-08-03T10:55:23Z</time></trkpt><trkpt lat="51.644443" lon="-2.263452"><ele>178.46</ele><time>2011-08-03T10:55:31Z</time></trkpt><trkpt lat="51.644522" lon="-2.263520"><ele>180.38</ele><time>2011-08-03T10:55:40Z</time></trkpt><trkpt lat="51.644591" lon="-2.263583"><ele>182.79</ele><time>2011-08-03T10:55:49Z</time></trkpt><trkpt lat="51.644642" lon="-2.263599"><ele>183.75</ele><time>2011-08-03T10:56:04Z</time></trkpt><trkpt lat="51.644680" lon="-2.263635"><ele>185.19</ele><time>2011-08-03T10:56:12Z</time></trkpt><trkpt lat="51.644750" lon="-2.263685"><ele>186.63</ele><time>2011-08-03T10:56:22Z</time></trkpt><trkpt lat="51.644768" lon="-2.263685"><ele>187.11</ele><time>2011-08-03T10:56:27Z</time></trkpt><trkpt lat="51.644829" lon="-2.263744"><ele>189.04</ele><time>2011-08-03T10:56:35Z</time></trkpt><trkpt lat="51.644892" lon="-2.263807"><ele>189.52</ele><time>2011-08-03T10:56:43Z</time></trkpt><trkpt lat="51.644948" lon="-2.263857"><ele>190.48</ele><time>2011-08-03T10:56:50Z</time></trkpt><trkpt lat="51.645025" lon="-2.263938"><ele>191.92</ele><time>2011-08-03T10:56:59Z</time></trkpt><trkpt lat="51.645063" lon="-2.263954"><ele>191.44</ele><time>2011-08-03T10:57:06Z</time></trkpt><trkpt lat="51.645097" lon="-2.263973"><ele>192.40</ele><time>2011-08-03T10:57:14Z</time></trkpt><trkpt lat="51.645139" lon="-2.263990"><ele>192.88</ele><time>2011-08-03T10:57:23Z</time></trkpt><trkpt lat="51.645151" lon="-2.263971"><ele>192.88</ele><time>2011-08-03T10:57:26Z</time></trkpt><trkpt lat="51.645199" lon="-2.263933"><ele>192.40</ele><time>2011-08-03T10:57:31Z</time></trkpt><trkpt lat="51.645293" lon="-2.263865"><ele>190.96</ele><time>2011-08-03T10:57:40Z</time></trkpt><trkpt lat="51.645440" lon="-2.263691"><ele>188.08</ele><time>2011-08-03T10:57:54Z</time></trkpt><trkpt lat="51.645442" lon="-2.263678"><ele>188.56</ele><time>2011-08-03T10:58:03Z</time></trkpt><trkpt lat="51.645413" lon="-2.263747"><ele>184.23</ele><time>2011-08-03T10:58:23Z</time></trkpt><trkpt lat="51.645401" lon="-2.263807"><ele>183.75</ele><time>2011-08-03T10:58:31Z</time></trkpt><trkpt lat="51.645399" lon="-2.263819"><ele>184.23</ele><time>2011-08-03T10:58:33Z</time></trkpt><trkpt lat="51.645377" lon="-2.263946"><ele>187.11</ele><time>2011-08-03T10:58:42Z</time></trkpt><trkpt lat="51.645365" lon="-2.264048"><ele>189.04</ele><time>2011-08-03T10:58:49Z</time></trkpt><trkpt lat="51.645352" lon="-2.264173"><ele>189.52</ele><time>2011-08-03T10:59:00Z</time></trkpt><trkpt lat="51.645383" lon="-2.264186"><ele>191.44</ele><time>2011-08-03T10:59:11Z</time></trkpt><trkpt lat="51.645406" lon="-2.264232"><ele>195.28</ele><time>2011-08-03T10:59:22Z</time></trkpt><trkpt lat="51.645419" lon="-2.264256"><ele>197.21</ele><time>2011-08-03T10:59:25Z</time></trkpt><trkpt lat="51.645499" lon="-2.264364"><ele>200.57</ele><time>2011-08-03T10:59:35Z</time></trkpt><trkpt lat="51.645529" lon="-2.264364"><ele>201.05</ele><time>2011-08-03T10:59:44Z</time></trkpt><trkpt lat="51.645545" lon="-2.264370"><ele>202.01</ele><time>2011-08-03T10:59:46Z</time></trkpt><trkpt lat="51.645622" lon="-2.264381"><ele>202.98</ele><time>2011-08-03T10:59:55Z</time></trkpt><trkpt lat="51.645672" lon="-2.264393"><ele>201.53</ele><time>2011-08-03T11:00:03Z</time></trkpt><trkpt lat="51.645715" lon="-2.264407"><ele>201.53</ele><time>2011-08-03T11:00:16Z</time></trkpt><trkpt lat="51.645789" lon="-2.264415"><ele>201.05</ele><time>2011-08-03T11:00:24Z</time></trkpt><trkpt lat="51.645853" lon="-2.264418"><ele>201.05</ele><time>2011-08-03T11:00:32Z</time></trkpt><trkpt lat="51.645906" lon="-2.264415"><ele>200.57</ele><time>2011-08-03T11:00:40Z</time></trkpt><trkpt lat="51.645951" lon="-2.264430"><ele>199.61</ele><time>2011-08-03T11:00:47Z</time></trkpt><trkpt lat="51.645985" lon="-2.264420"><ele>199.61</ele><time>2011-08-03T11:00:54Z</time></trkpt><trkpt lat="51.646085" lon="-2.264397"><ele>199.13</ele><time>2011-08-03T11:01:03Z</time></trkpt><trkpt lat="51.646176" lon="-2.264361"><ele>198.17</ele><time>2011-08-03T11:01:13Z</time></trkpt><trkpt lat="51.646274" lon="-2.264337"><ele>198.17</ele><time>2011-08-03T11:01:23Z</time></trkpt><trkpt lat="51.646378" lon="-2.264297"><ele>197.69</ele><time>2011-08-03T11:01:33Z</time></trkpt><trkpt lat="51.646473" lon="-2.264259"><ele>196.25</ele><time>2011-08-03T11:01:43Z</time></trkpt><trkpt lat="51.646502" lon="-2.264255"><ele>195.77</ele><time>2011-08-03T11:01:46Z</time></trkpt><trkpt lat="51.646537" lon="-2.264245"><ele>195.77</ele><time>2011-08-03T11:01:50Z</time></trkpt><trkpt lat="51.646621" lon="-2.264319"><ele>196.25</ele><time>2011-08-03T11:02:01Z</time></trkpt><trkpt lat="51.646677" lon="-2.264365"><ele>196.25</ele><time>2011-08-03T11:02:09Z</time></trkpt><trkpt lat="51.646727" lon="-2.264432"><ele>197.21</ele><time>2011-08-03T11:02:17Z</time></trkpt><trkpt lat="51.646792" lon="-2.264512"><ele>197.21</ele><time>2011-08-03T11:02:26Z</time></trkpt><trkpt lat="51.646853" lon="-2.264566"><ele>197.69</ele><time>2011-08-03T11:02:34Z</time></trkpt><trkpt lat="51.646925" lon="-2.264625"><ele>198.17</ele><time>2011-08-03T11:02:43Z</time></trkpt><trkpt lat="51.647008" lon="-2.264689"><ele>198.17</ele><time>2011-08-03T11:02:53Z</time></trkpt><trkpt lat="51.647095" lon="-2.264748"><ele>198.17</ele><time>2011-08-03T11:03:03Z</time></trkpt><trkpt lat="51.647159" lon="-2.264804"><ele>198.17</ele><time>2011-08-03T11:03:11Z</time></trkpt><trkpt lat="51.647209" lon="-2.264868"><ele>199.13</ele><time>2011-08-03T11:03:19Z</time></trkpt><trkpt lat="51.647257" lon="-2.264921"><ele>199.61</ele><time>2011-08-03T11:03:26Z</time></trkpt><trkpt lat="51.647308" lon="-2.264969"><ele>200.09</ele><time>2011-08-03T11:03:33Z</time></trkpt><trkpt lat="51.647360" lon="-2.265044"><ele>200.57</ele><time>2011-08-03T11:03:41Z</time></trkpt><trkpt lat="51.647418" lon="-2.265103"><ele>201.05</ele><time>2011-08-03T11:03:49Z</time></trkpt><trkpt lat="51.647473" lon="-2.265134"><ele>201.53</ele><time>2011-08-03T11:03:56Z</time></trkpt><trkpt lat="51.647503" lon="-2.265151"><ele>201.53</ele><time>2011-08-03T11:04:02Z</time></trkpt><trkpt lat="51.647561" lon="-2.265205"><ele>201.53</ele><time>2011-08-03T11:04:09Z</time></trkpt><trkpt lat="51.647607" lon="-2.265251"><ele>201.53</ele><time>2011-08-03T11:04:16Z</time></trkpt><trkpt lat="51.647632" lon="-2.265269"><ele>201.05</ele><time>2011-08-03T11:04:31Z</time></trkpt><trkpt lat="51.647738" lon="-2.265362"><ele>201.05</ele><time>2011-08-03T11:04:43Z</time></trkpt><trkpt lat="51.647810" lon="-2.265447"><ele>202.49</ele><time>2011-08-03T11:04:53Z</time></trkpt><trkpt lat="51.647878" lon="-2.265517"><ele>203.46</ele><time>2011-08-03T11:05:02Z</time></trkpt><trkpt lat="51.647944" lon="-2.265572"><ele>203.46</ele><time>2011-08-03T11:05:10Z</time></trkpt><trkpt lat="51.648006" lon="-2.265644"><ele>203.94</ele><time>2011-08-03T11:05:18Z</time></trkpt><trkpt lat="51.648067" lon="-2.265714"><ele>204.90</ele><time>2011-08-03T11:05:26Z</time></trkpt><trkpt lat="51.648143" lon="-2.265767"><ele>205.38</ele><time>2011-08-03T11:05:35Z</time></trkpt><trkpt lat="51.648211" lon="-2.265811"><ele>205.86</ele><time>2011-08-03T11:05:43Z</time></trkpt><trkpt lat="51.648280" lon="-2.265844"><ele>205.86</ele><time>2011-08-03T11:05:50Z</time></trkpt><trkpt lat="51.648345" lon="-2.265896"><ele>206.34</ele><time>2011-08-03T11:05:58Z</time></trkpt><trkpt lat="51.648420" lon="-2.265959"><ele>206.34</ele><time>2011-08-03T11:06:07Z</time></trkpt><trkpt lat="51.648499" lon="-2.266006"><ele>206.34</ele><time>2011-08-03T11:06:16Z</time></trkpt><trkpt lat="51.648570" lon="-2.266038"><ele>206.82</ele><time>2011-08-03T11:06:25Z</time></trkpt><trkpt lat="51.648640" lon="-2.266024"><ele>206.82</ele><time>2011-08-03T11:06:33Z</time></trkpt><trkpt lat="51.648697" lon="-2.265984"><ele>206.34</ele><time>2011-08-03T11:06:40Z</time></trkpt><trkpt lat="51.648747" lon="-2.265932"><ele>205.86</ele><time>2011-08-03T11:06:47Z</time></trkpt><trkpt lat="51.648801" lon="-2.265879"><ele>205.86</ele><time>2011-08-03T11:06:54Z</time></trkpt><trkpt lat="51.648868" lon="-2.265797"><ele>205.38</ele><time>2011-08-03T11:07:03Z</time></trkpt><trkpt lat="51.648920" lon="-2.265743"><ele>204.90</ele><time>2011-08-03T11:07:10Z</time></trkpt><trkpt lat="51.648973" lon="-2.265679"><ele>204.90</ele><time>2011-08-03T11:07:17Z</time></trkpt><trkpt lat="51.649084" lon="-2.265563"><ele>202.01</ele><time>2011-08-03T11:07:31Z</time></trkpt><trkpt lat="51.649148" lon="-2.265498"><ele>200.57</ele><time>2011-08-03T11:07:41Z</time></trkpt><trkpt lat="51.649206" lon="-2.265437"><ele>199.61</ele><time>2011-08-03T11:07:49Z</time></trkpt><trkpt lat="51.649262" lon="-2.265350"><ele>198.17</ele><time>2011-08-03T11:07:58Z</time></trkpt><trkpt lat="51.649306" lon="-2.265270"><ele>197.69</ele><time>2011-08-03T11:08:07Z</time></trkpt><trkpt lat="51.649312" lon="-2.265259"><ele>196.73</ele><time>2011-08-03T11:08:19Z</time></trkpt><trkpt lat="51.649346" lon="-2.265249"><ele>196.73</ele><time>2011-08-03T11:08:26Z</time></trkpt><trkpt lat="51.649344" lon="-2.265243"><ele>196.73</ele><time>2011-08-03T11:08:27Z</time></trkpt><trkpt lat="51.649349" lon="-2.265236"><ele>196.73</ele><time>2011-08-03T11:08:30Z</time></trkpt><trkpt lat="51.649439" lon="-2.265258"><ele>197.69</ele><time>2011-08-03T11:08:39Z</time></trkpt><trkpt lat="51.649525" lon="-2.265294"><ele>197.69</ele><time>2011-08-03T11:08:48Z</time></trkpt><trkpt lat="51.649598" lon="-2.265345"><ele>197.21</ele><time>2011-08-03T11:08:57Z</time></trkpt><trkpt lat="51.649656" lon="-2.265385"><ele>197.69</ele><time>2011-08-03T11:09:05Z</time></trkpt><trkpt lat="51.649746" lon="-2.265444"><ele>197.21</ele><time>2011-08-03T11:09:15Z</time></trkpt><trkpt lat="51.649813" lon="-2.265489"><ele>197.69</ele><time>2011-08-03T11:09:23Z</time></trkpt><trkpt lat="51.649883" lon="-2.265528"><ele>197.69</ele><time>2011-08-03T11:09:31Z</time></trkpt><trkpt lat="51.649954" lon="-2.265557"><ele>196.73</ele><time>2011-08-03T11:09:40Z</time></trkpt><trkpt lat="51.650021" lon="-2.265601"><ele>198.17</ele><time>2011-08-03T11:09:49Z</time></trkpt><trkpt lat="51.650102" lon="-2.265657"><ele>199.13</ele><time>2011-08-03T11:09:59Z</time></trkpt><trkpt lat="51.650166" lon="-2.265693"><ele>199.61</ele><time>2011-08-03T11:10:07Z</time></trkpt><trkpt lat="51.650211" lon="-2.265741"><ele>200.57</ele><time>2011-08-03T11:10:14Z</time></trkpt><trkpt lat="51.650257" lon="-2.265779"><ele>201.05</ele><time>2011-08-03T11:10:22Z</time></trkpt><trkpt lat="51.650318" lon="-2.265817"><ele>201.05</ele><time>2011-08-03T11:10:29Z</time></trkpt><trkpt lat="51.650394" lon="-2.265870"><ele>201.05</ele><time>2011-08-03T11:10:39Z</time></trkpt><trkpt lat="51.650441" lon="-2.265940"><ele>201.05</ele><time>2011-08-03T11:10:47Z</time></trkpt><trkpt lat="51.650499" lon="-2.266008"><ele>200.09</ele><time>2011-08-03T11:10:56Z</time></trkpt><trkpt lat="51.650551" lon="-2.266075"><ele>200.09</ele><time>2011-08-03T11:11:04Z</time></trkpt><trkpt lat="51.650581" lon="-2.266115"><ele>200.09</ele><time>2011-08-03T11:11:12Z</time></trkpt><trkpt lat="51.650622" lon="-2.266151"><ele>200.57</ele><time>2011-08-03T11:11:25Z</time></trkpt><trkpt lat="51.650661" lon="-2.266209"><ele>201.53</ele><time>2011-08-03T11:11:32Z</time></trkpt><trkpt lat="51.650700" lon="-2.266264"><ele>202.01</ele><time>2011-08-03T11:11:39Z</time></trkpt><trkpt lat="51.650759" lon="-2.266306"><ele>201.53</ele><time>2011-08-03T11:11:47Z</time></trkpt><trkpt lat="51.650781" lon="-2.266278"><ele>200.57</ele><time>2011-08-03T11:11:52Z</time></trkpt><trkpt lat="51.650840" lon="-2.266175"><ele>199.61</ele><time>2011-08-03T11:12:02Z</time></trkpt><trkpt lat="51.650852" lon="-2.266231"><ele>198.65</ele><time>2011-08-03T11:12:19Z</time></trkpt><trkpt lat="51.650861" lon="-2.266261"><ele>198.65</ele><time>2011-08-03T11:12:21Z</time></trkpt><trkpt lat="51.650898" lon="-2.266451"><ele>199.61</ele><time>2011-08-03T11:12:32Z</time></trkpt><trkpt lat="51.650949" lon="-2.266612"><ele>200.09</ele><time>2011-08-03T11:12:41Z</time></trkpt><trkpt lat="51.651038" lon="-2.266773"><ele>201.05</ele><time>2011-08-03T11:12:52Z</time></trkpt><trkpt lat="51.651065" lon="-2.266820"><ele>201.05</ele><time>2011-08-03T11:12:57Z</time></trkpt><trkpt lat="51.651087" lon="-2.266838"><ele>201.53</ele><time>2011-08-03T11:13:00Z</time></trkpt><trkpt lat="51.651172" lon="-2.266969"><ele>202.98</ele><time>2011-08-03T11:13:11Z</time></trkpt><trkpt lat="51.651192" lon="-2.266977"><ele>202.49</ele><time>2011-08-03T11:13:13Z</time></trkpt><trkpt lat="51.651268" lon="-2.266912"><ele>200.09</ele><time>2011-08-03T11:13:19Z</time></trkpt><trkpt lat="51.651298" lon="-2.266829"><ele>202.01</ele><time>2011-08-03T11:13:22Z</time></trkpt><trkpt lat="51.651296" lon="-2.266769"><ele>202.49</ele><time>2011-08-03T11:13:31Z</time></trkpt><trkpt lat="51.651279" lon="-2.266779"><ele>203.46</ele><time>2011-08-03T11:13:43Z</time></trkpt><trkpt lat="51.651285" lon="-2.266785"><ele>202.98</ele><time>2011-08-03T11:13:51Z</time></trkpt><trkpt lat="51.651322" lon="-2.266800"><ele>201.53</ele><time>2011-08-03T11:14:07Z</time></trkpt><trkpt lat="51.651417" lon="-2.266864"><ele>199.61</ele><time>2011-08-03T11:14:19Z</time></trkpt><trkpt lat="51.651421" lon="-2.266868"><ele>199.13</ele><time>2011-08-03T11:14:20Z</time></trkpt><trkpt lat="51.651487" lon="-2.266937"><ele>200.09</ele><time>2011-08-03T11:14:30Z</time></trkpt><trkpt lat="51.651524" lon="-2.266956"><ele>200.09</ele><time>2011-08-03T11:14:34Z</time></trkpt><trkpt lat="51.651604" lon="-2.266906"><ele>199.61</ele><time>2011-08-03T11:14:44Z</time></trkpt><trkpt lat="51.651620" lon="-2.266935"><ele>200.09</ele><time>2011-08-03T11:14:51Z</time></trkpt><trkpt lat="51.651667" lon="-2.266957"><ele>200.09</ele><time>2011-08-03T11:14:59Z</time></trkpt><trkpt lat="51.651706" lon="-2.266987"><ele>201.05</ele><time>2011-08-03T11:15:08Z</time></trkpt><trkpt lat="51.651729" lon="-2.266991"><ele>200.57</ele><time>2011-08-03T11:15:17Z</time></trkpt><trkpt lat="51.651794" lon="-2.266981"><ele>200.57</ele><time>2011-08-03T11:15:24Z</time></trkpt><trkpt lat="51.651836" lon="-2.266969"><ele>200.57</ele><time>2011-08-03T11:15:30Z</time></trkpt><trkpt lat="51.651914" lon="-2.266949"><ele>201.53</ele><time>2011-08-03T11:15:41Z</time></trkpt><trkpt lat="51.651999" lon="-2.267017"><ele>201.53</ele><time>2011-08-03T11:15:55Z</time></trkpt><trkpt lat="51.652038" lon="-2.267029"><ele>201.05</ele><time>2011-08-03T11:16:04Z</time></trkpt><trkpt lat="51.652069" lon="-2.267041"><ele>201.05</ele><time>2011-08-03T11:16:15Z</time></trkpt><trkpt lat="51.652151" lon="-2.267165"><ele>201.53</ele><time>2011-08-03T11:16:24Z</time></trkpt><trkpt lat="51.652172" lon="-2.267283"><ele>202.01</ele><time>2011-08-03T11:16:31Z</time></trkpt><trkpt lat="51.652182" lon="-2.267411"><ele>204.90</ele><time>2011-08-03T11:16:42Z</time></trkpt><trkpt lat="51.652188" lon="-2.267538"><ele>206.82</ele><time>2011-08-03T11:16:51Z</time></trkpt><trkpt lat="51.652186" lon="-2.267652"><ele>205.86</ele><time>2011-08-03T11:16:59Z</time></trkpt><trkpt lat="51.652197" lon="-2.267763"><ele>204.90</ele><time>2011-08-03T11:17:10Z</time></trkpt><trkpt lat="51.652213" lon="-2.267834"><ele>204.42</ele><time>2011-08-03T11:17:20Z</time></trkpt><trkpt lat="51.652225" lon="-2.267972"><ele>203.46</ele><time>2011-08-03T11:17:29Z</time></trkpt><trkpt lat="51.652238" lon="-2.268081"><ele>203.94</ele><time>2011-08-03T11:17:36Z</time></trkpt><trkpt lat="51.652244" lon="-2.268176"><ele>204.42</ele><time>2011-08-03T11:17:43Z</time></trkpt><trkpt lat="51.652267" lon="-2.268238"><ele>204.42</ele><time>2011-08-03T11:17:48Z</time></trkpt><trkpt lat="51.652286" lon="-2.268267"><ele>203.94</ele><time>2011-08-03T11:17:54Z</time></trkpt><trkpt lat="51.652285" lon="-2.268288"><ele>203.94</ele><time>2011-08-03T11:17:59Z</time></trkpt><trkpt lat="51.652304" lon="-2.268366"><ele>203.94</ele><time>2011-08-03T11:18:07Z</time></trkpt><trkpt lat="51.652344" lon="-2.268479"><ele>203.94</ele><time>2011-08-03T11:18:15Z</time></trkpt><trkpt lat="51.652383" lon="-2.268601"><ele>203.94</ele><time>2011-08-03T11:18:24Z</time></trkpt><trkpt lat="51.652434" lon="-2.268729"><ele>202.98</ele><time>2011-08-03T11:18:34Z</time></trkpt><trkpt lat="51.652473" lon="-2.268814"><ele>203.46</ele><time>2011-08-03T11:18:41Z</time></trkpt><trkpt lat="51.652525" lon="-2.268926"><ele>203.94</ele><time>2011-08-03T11:18:50Z</time></trkpt><trkpt lat="51.652584" lon="-2.269033"><ele>203.94</ele><time>2011-08-03T11:18:59Z</time></trkpt><trkpt lat="51.652641" lon="-2.269134"><ele>203.46</ele><time>2011-08-03T11:19:08Z</time></trkpt><trkpt lat="51.652728" lon="-2.269278"><ele>202.49</ele><time>2011-08-03T11:19:21Z</time></trkpt><trkpt lat="51.652780" lon="-2.269395"><ele>201.53</ele><time>2011-08-03T11:19:30Z</time></trkpt><trkpt lat="51.652818" lon="-2.269504"><ele>202.01</ele><time>2011-08-03T11:19:38Z</time></trkpt><trkpt lat="51.652856" lon="-2.269624"><ele>201.53</ele><time>2011-08-03T11:19:47Z</time></trkpt><trkpt lat="51.652916" lon="-2.269688"><ele>201.05</ele><time>2011-08-03T11:19:55Z</time></trkpt><trkpt lat="51.652929" lon="-2.269694"><ele>201.53</ele><time>2011-08-03T11:20:05Z</time></trkpt><trkpt lat="51.652918" lon="-2.269819"><ele>203.46</ele><time>2011-08-03T11:20:13Z</time></trkpt><trkpt lat="51.652906" lon="-2.269888"><ele>204.90</ele><time>2011-08-03T11:20:17Z</time></trkpt><trkpt lat="51.652906" lon="-2.269889"><ele>204.42</ele><time>2011-08-03T11:20:19Z</time></trkpt><trkpt lat="51.652987" lon="-2.269731"><ele>203.46</ele><time>2011-08-03T11:20:29Z</time></trkpt><trkpt lat="51.653058" lon="-2.269670"><ele>203.46</ele><time>2011-08-03T11:20:36Z</time></trkpt><trkpt lat="51.653060" lon="-2.269662"><ele>204.42</ele><time>2011-08-03T11:20:43Z</time></trkpt><trkpt lat="51.653061" lon="-2.269667"><ele>204.90</ele><time>2011-08-03T11:20:55Z</time></trkpt><trkpt lat="51.653152" lon="-2.269648"><ele>203.94</ele><time>2011-08-03T11:21:02Z</time></trkpt><trkpt lat="51.653245" lon="-2.269623"><ele>202.98</ele><time>2011-08-03T11:21:09Z</time></trkpt><trkpt lat="51.653313" lon="-2.269601"><ele>202.49</ele><time>2011-08-03T11:21:15Z</time></trkpt><trkpt lat="51.653411" lon="-2.269588"><ele>205.38</ele><time>2011-08-03T11:21:26Z</time></trkpt><trkpt lat="51.653466" lon="-2.269597"><ele>206.34</ele><time>2011-08-03T11:21:34Z</time></trkpt><trkpt lat="51.653528" lon="-2.269561"><ele>204.90</ele><time>2011-08-03T11:21:42Z</time></trkpt><trkpt lat="51.653596" lon="-2.269550"><ele>204.90</ele><time>2011-08-03T11:21:50Z</time></trkpt><trkpt lat="51.653630" lon="-2.269494"><ele>202.98</ele><time>2011-08-03T11:21:56Z</time></trkpt><trkpt lat="51.653658" lon="-2.269509"><ele>203.94</ele><time>2011-08-03T11:22:05Z</time></trkpt><trkpt lat="51.653705" lon="-2.269567"><ele>206.82</ele><time>2011-08-03T11:22:12Z</time></trkpt><trkpt lat="51.653726" lon="-2.269566"><ele>206.82</ele><time>2011-08-03T11:22:14Z</time></trkpt><trkpt lat="51.653808" lon="-2.269584"><ele>207.30</ele><time>2011-08-03T11:22:23Z</time></trkpt><trkpt lat="51.653887" lon="-2.269637"><ele>209.22</ele><time>2011-08-03T11:22:31Z</time></trkpt><trkpt lat="51.653942" lon="-2.269726"><ele>211.63</ele><time>2011-08-03T11:22:42Z</time></trkpt><trkpt lat="51.653944" lon="-2.269793"><ele>212.11</ele><time>2011-08-03T11:22:51Z</time></trkpt><trkpt lat="51.653952" lon="-2.269866"><ele>212.11</ele><time>2011-08-03T11:22:59Z</time></trkpt><trkpt lat="51.654021" lon="-2.270006"><ele>212.11</ele><time>2011-08-03T11:23:10Z</time></trkpt><trkpt lat="51.654070" lon="-2.270131"><ele>209.70</ele><time>2011-08-03T11:23:20Z</time></trkpt><trkpt lat="51.654099" lon="-2.270202"><ele>207.78</ele><time>2011-08-03T11:23:29Z</time></trkpt><trkpt lat="51.654106" lon="-2.270215"><ele>207.78</ele><time>2011-08-03T11:23:39Z</time></trkpt><trkpt lat="51.654140" lon="-2.270334"><ele>207.78</ele><time>2011-08-03T11:23:47Z</time></trkpt><trkpt lat="51.654158" lon="-2.270436"><ele>206.34</ele><time>2011-08-03T11:23:58Z</time></trkpt><trkpt lat="51.654212" lon="-2.270578"><ele>203.94</ele><time>2011-08-03T11:24:10Z</time></trkpt><trkpt lat="51.654201" lon="-2.270649"><ele>201.53</ele><time>2011-08-03T11:24:21Z</time></trkpt><trkpt lat="51.654262" lon="-2.270783"><ele>200.57</ele><time>2011-08-03T11:24:33Z</time></trkpt><trkpt lat="51.654303" lon="-2.270874"><ele>200.57</ele><time>2011-08-03T11:24:40Z</time></trkpt><trkpt lat="51.654377" lon="-2.271017"><ele>201.05</ele><time>2011-08-03T11:24:50Z</time></trkpt><trkpt lat="51.654465" lon="-2.271121"><ele>202.49</ele><time>2011-08-03T11:24:59Z</time></trkpt><trkpt lat="51.654501" lon="-2.271186"><ele>202.98</ele><time>2011-08-03T11:25:06Z</time></trkpt><trkpt lat="51.654546" lon="-2.271281"><ele>202.01</ele><time>2011-08-03T11:25:15Z</time></trkpt><trkpt lat="51.654630" lon="-2.271388"><ele>201.53</ele><time>2011-08-03T11:25:26Z</time></trkpt><trkpt lat="51.654676" lon="-2.271458"><ele>201.05</ele><time>2011-08-03T11:25:33Z</time></trkpt><trkpt lat="51.654766" lon="-2.271533"><ele>201.05</ele><time>2011-08-03T11:25:45Z</time></trkpt><trkpt lat="51.654779" lon="-2.271567"><ele>201.05</ele><time>2011-08-03T11:25:56Z</time></trkpt><trkpt lat="51.654850" lon="-2.271644"><ele>202.01</ele><time>2011-08-03T11:26:04Z</time></trkpt><trkpt lat="51.654874" lon="-2.271665"><ele>202.01</ele><time>2011-08-03T11:26:06Z</time></trkpt><trkpt lat="51.654997" lon="-2.271703"><ele>202.98</ele><time>2011-08-03T11:26:15Z</time></trkpt><trkpt lat="51.655097" lon="-2.271757"><ele>203.94</ele><time>2011-08-03T11:26:25Z</time></trkpt><trkpt lat="51.655174" lon="-2.271799"><ele>203.94</ele><time>2011-08-03T11:26:33Z</time></trkpt><trkpt lat="51.655277" lon="-2.271876"><ele>200.57</ele><time>2011-08-03T11:26:46Z</time></trkpt><trkpt lat="51.655390" lon="-2.271886"><ele>198.17</ele><time>2011-08-03T11:27:02Z</time></trkpt><trkpt lat="51.655487" lon="-2.271846"><ele>197.21</ele><time>2011-08-03T11:27:13Z</time></trkpt><trkpt lat="51.655565" lon="-2.271767"><ele>195.28</ele><time>2011-08-03T11:27:23Z</time></trkpt><trkpt lat="51.655663" lon="-2.271644"><ele>193.84</ele><time>2011-08-03T11:27:36Z</time></trkpt><trkpt lat="51.655715" lon="-2.271593"><ele>193.36</ele><time>2011-08-03T11:27:45Z</time></trkpt><trkpt lat="51.655791" lon="-2.271516"><ele>192.40</ele><time>2011-08-03T11:27:54Z</time></trkpt><trkpt lat="51.655825" lon="-2.271492"><ele>191.44</ele><time>2011-08-03T11:28:13Z</time></trkpt><trkpt lat="51.655930" lon="-2.271410"><ele>191.92</ele><time>2011-08-03T11:28:26Z</time></trkpt><trkpt lat="51.656067" lon="-2.271413"><ele>193.36</ele><time>2011-08-03T11:28:40Z</time></trkpt><trkpt lat="51.656133" lon="-2.271410"><ele>193.36</ele><time>2011-08-03T11:28:49Z</time></trkpt><trkpt lat="51.656224" lon="-2.271424"><ele>193.84</ele><time>2011-08-03T11:28:59Z</time></trkpt><trkpt lat="51.656264" lon="-2.271461"><ele>194.80</ele><time>2011-08-03T11:29:13Z</time></trkpt><trkpt lat="51.656308" lon="-2.271435"><ele>194.32</ele><time>2011-08-03T11:29:26Z</time></trkpt><trkpt lat="51.656340" lon="-2.271438"><ele>194.32</ele><time>2011-08-03T11:29:31Z</time></trkpt><trkpt lat="51.656420" lon="-2.271416"><ele>193.84</ele><time>2011-08-03T11:29:40Z</time></trkpt><trkpt lat="51.656505" lon="-2.271348"><ele>188.56</ele><time>2011-08-03T11:29:52Z</time></trkpt><trkpt lat="51.656537" lon="-2.271389"><ele>186.15</ele><time>2011-08-03T11:29:59Z</time></trkpt><trkpt lat="51.656558" lon="-2.271422"><ele>186.15</ele><time>2011-08-03T11:30:06Z</time></trkpt><trkpt lat="51.656578" lon="-2.271451"><ele>186.15</ele><time>2011-08-03T11:30:15Z</time></trkpt><trkpt lat="51.656619" lon="-2.271493"><ele>186.63</ele><time>2011-08-03T11:30:23Z</time></trkpt><trkpt lat="51.656662" lon="-2.271524"><ele>188.08</ele><time>2011-08-03T11:30:31Z</time></trkpt><trkpt lat="51.656706" lon="-2.271519"><ele>189.04</ele><time>2011-08-03T11:30:45Z</time></trkpt><trkpt lat="51.656776" lon="-2.271543"><ele>189.04</ele><time>2011-08-03T11:30:54Z</time></trkpt><trkpt lat="51.656841" lon="-2.271578"><ele>189.52</ele><time>2011-08-03T11:31:02Z</time></trkpt><trkpt lat="51.656896" lon="-2.271610"><ele>189.04</ele><time>2011-08-03T11:31:09Z</time></trkpt><trkpt lat="51.656956" lon="-2.271640"><ele>190.00</ele><time>2011-08-03T11:31:17Z</time></trkpt><trkpt lat="51.657011" lon="-2.271683"><ele>189.52</ele><time>2011-08-03T11:31:24Z</time></trkpt><trkpt lat="51.657061" lon="-2.271698"><ele>189.52</ele><time>2011-08-03T11:31:30Z</time></trkpt><trkpt lat="51.657122" lon="-2.271732"><ele>187.59</ele><time>2011-08-03T11:31:37Z</time></trkpt><trkpt lat="51.657179" lon="-2.271752"><ele>187.11</ele><time>2011-08-03T11:31:44Z</time></trkpt><trkpt lat="51.657248" lon="-2.271795"><ele>186.63</ele><time>2011-08-03T11:31:53Z</time></trkpt><trkpt lat="51.657304" lon="-2.271822"><ele>187.11</ele><time>2011-08-03T11:32:00Z</time></trkpt><trkpt lat="51.657354" lon="-2.271845"><ele>188.56</ele><time>2011-08-03T11:32:07Z</time></trkpt><trkpt lat="51.657415" lon="-2.271851"><ele>189.04</ele><time>2011-08-03T11:32:14Z</time></trkpt><trkpt lat="51.657444" lon="-2.271856"><ele>189.52</ele><time>2011-08-03T11:32:17Z</time></trkpt><trkpt lat="51.657509" lon="-2.271851"><ele>189.52</ele><time>2011-08-03T11:32:24Z</time></trkpt><trkpt lat="51.657574" lon="-2.271841"><ele>190.00</ele><time>2011-08-03T11:32:31Z</time></trkpt><trkpt lat="51.657645" lon="-2.271808"><ele>190.00</ele><time>2011-08-03T11:32:39Z</time></trkpt><trkpt lat="51.657685" lon="-2.271787"><ele>189.52</ele><time>2011-08-03T11:32:44Z</time></trkpt><trkpt lat="51.657759" lon="-2.271751"><ele>189.52</ele><time>2011-08-03T11:32:52Z</time></trkpt><trkpt lat="51.657823" lon="-2.271721"><ele>190.00</ele><time>2011-08-03T11:32:59Z</time></trkpt><trkpt lat="51.657886" lon="-2.271688"><ele>190.00</ele><time>2011-08-03T11:33:06Z</time></trkpt><trkpt lat="51.657943" lon="-2.271657"><ele>190.48</ele><time>2011-08-03T11:33:13Z</time></trkpt><trkpt lat="51.658007" lon="-2.271617"><ele>191.44</ele><time>2011-08-03T11:33:21Z</time></trkpt><trkpt lat="51.658070" lon="-2.271584"><ele>191.92</ele><time>2011-08-03T11:33:28Z</time></trkpt><trkpt lat="51.658140" lon="-2.271544"><ele>192.88</ele><time>2011-08-03T11:33:37Z</time></trkpt><trkpt lat="51.658180" lon="-2.271495"><ele>193.36</ele><time>2011-08-03T11:33:45Z</time></trkpt><trkpt lat="51.658180" lon="-2.271493"><ele>193.84</ele><time>2011-08-03T11:33:47Z</time></trkpt><trkpt lat="51.658174" lon="-2.271456"><ele>193.84</ele><time>2011-08-03T11:33:55Z</time></trkpt><trkpt lat="51.658190" lon="-2.271447"><ele>193.84</ele><time>2011-08-03T11:33:59Z</time></trkpt><trkpt lat="51.658268" lon="-2.271389"><ele>193.36</ele><time>2011-08-03T11:34:07Z</time></trkpt><trkpt lat="51.658324" lon="-2.271315"><ele>193.84</ele><time>2011-08-03T11:34:14Z</time></trkpt><trkpt lat="51.658332" lon="-2.271306"><ele>193.84</ele><time>2011-08-03T11:34:15Z</time></trkpt><trkpt lat="51.658347" lon="-2.271291"><ele>193.84</ele><time>2011-08-03T11:34:17Z</time></trkpt><trkpt lat="51.658363" lon="-2.271282"><ele>194.80</ele><time>2011-08-03T11:34:19Z</time></trkpt><trkpt lat="51.658400" lon="-2.271261"><ele>196.25</ele><time>2011-08-03T11:34:25Z</time></trkpt><trkpt lat="51.658444" lon="-2.271230"><ele>199.13</ele><time>2011-08-03T11:34:34Z</time></trkpt><trkpt lat="51.658516" lon="-2.271222"><ele>201.53</ele><time>2011-08-03T11:34:45Z</time></trkpt><trkpt lat="51.658611" lon="-2.271158"><ele>204.42</ele><time>2011-08-03T11:34:56Z</time></trkpt><trkpt lat="51.658705" lon="-2.271096"><ele>204.90</ele><time>2011-08-03T11:35:05Z</time></trkpt><trkpt lat="51.658781" lon="-2.271052"><ele>207.30</ele><time>2011-08-03T11:35:15Z</time></trkpt><trkpt lat="51.658860" lon="-2.270969"><ele>208.26</ele><time>2011-08-03T11:35:25Z</time></trkpt><trkpt lat="51.658923" lon="-2.270946"><ele>209.70</ele><time>2011-08-03T11:35:31Z</time></trkpt><trkpt lat="51.659009" lon="-2.270929"><ele>207.78</ele><time>2011-08-03T11:35:40Z</time></trkpt><trkpt lat="51.659080" lon="-2.270921"><ele>208.26</ele><time>2011-08-03T11:35:48Z</time></trkpt><trkpt lat="51.659172" lon="-2.270899"><ele>207.78</ele><time>2011-08-03T11:35:56Z</time></trkpt><trkpt lat="51.659246" lon="-2.270888"><ele>206.82</ele><time>2011-08-03T11:36:03Z</time></trkpt><trkpt lat="51.659316" lon="-2.270901"><ele>206.82</ele><time>2011-08-03T11:36:11Z</time></trkpt><trkpt lat="51.659384" lon="-2.270919"><ele>205.86</ele><time>2011-08-03T11:36:18Z</time></trkpt><trkpt lat="51.659462" lon="-2.270913"><ele>205.38</ele><time>2011-08-03T11:36:25Z</time></trkpt><trkpt lat="51.659528" lon="-2.270912"><ele>205.86</ele><time>2011-08-03T11:36:32Z</time></trkpt><trkpt lat="51.659596" lon="-2.270925"><ele>205.38</ele><time>2011-08-03T11:36:39Z</time></trkpt><trkpt lat="51.659674" lon="-2.270946"><ele>206.34</ele><time>2011-08-03T11:36:47Z</time></trkpt><trkpt lat="51.659741" lon="-2.270951"><ele>206.82</ele><time>2011-08-03T11:36:55Z</time></trkpt><trkpt lat="51.659809" lon="-2.270952"><ele>203.94</ele><time>2011-08-03T11:37:03Z</time></trkpt><trkpt lat="51.659854" lon="-2.270945"><ele>202.49</ele><time>2011-08-03T11:37:09Z</time></trkpt><trkpt lat="51.659958" lon="-2.270966"><ele>202.01</ele><time>2011-08-03T11:37:19Z</time></trkpt><trkpt lat="51.660040" lon="-2.270994"><ele>202.98</ele><time>2011-08-03T11:37:27Z</time></trkpt><trkpt lat="51.660104" lon="-2.271018"><ele>203.46</ele><time>2011-08-03T11:37:35Z</time></trkpt><trkpt lat="51.660178" lon="-2.271033"><ele>204.90</ele><time>2011-08-03T11:37:43Z</time></trkpt><trkpt lat="51.660246" lon="-2.271042"><ele>205.38</ele><time>2011-08-03T11:37:50Z</time></trkpt><trkpt lat="51.660312" lon="-2.271051"><ele>205.86</ele><time>2011-08-03T11:37:57Z</time></trkpt><trkpt lat="51.660390" lon="-2.271078"><ele>205.86</ele><time>2011-08-03T11:38:05Z</time></trkpt><trkpt lat="51.660468" lon="-2.271101"><ele>205.86</ele><time>2011-08-03T11:38:13Z</time></trkpt><trkpt lat="51.660543" lon="-2.271109"><ele>206.34</ele><time>2011-08-03T11:38:21Z</time></trkpt><trkpt lat="51.660617" lon="-2.271118"><ele>207.78</ele><time>2011-08-03T11:38:29Z</time></trkpt><trkpt lat="51.660682" lon="-2.271127"><ele>207.30</ele><time>2011-08-03T11:38:36Z</time></trkpt><trkpt lat="51.660763" lon="-2.271139"><ele>207.78</ele><time>2011-08-03T11:38:44Z</time></trkpt><trkpt lat="51.660829" lon="-2.271154"><ele>208.26</ele><time>2011-08-03T11:38:52Z</time></trkpt><trkpt lat="51.660890" lon="-2.271166"><ele>208.26</ele><time>2011-08-03T11:38:59Z</time></trkpt><trkpt lat="51.660960" lon="-2.271187"><ele>208.26</ele><time>2011-08-03T11:39:07Z</time></trkpt><trkpt lat="51.661022" lon="-2.271223"><ele>207.78</ele><time>2011-08-03T11:39:14Z</time></trkpt><trkpt lat="51.661099" lon="-2.271243"><ele>207.78</ele><time>2011-08-03T11:39:22Z</time></trkpt><trkpt lat="51.661202" lon="-2.271291"><ele>208.74</ele><time>2011-08-03T11:39:34Z</time></trkpt><trkpt lat="51.661292" lon="-2.271312"><ele>209.22</ele><time>2011-08-03T11:39:44Z</time></trkpt><trkpt lat="51.661368" lon="-2.271340"><ele>210.19</ele><time>2011-08-03T11:39:53Z</time></trkpt><trkpt lat="51.661401" lon="-2.271326"><ele>211.15</ele><time>2011-08-03T11:40:03Z</time></trkpt><trkpt lat="51.661428" lon="-2.271350"><ele>212.11</ele><time>2011-08-03T11:40:09Z</time></trkpt><trkpt lat="51.661442" lon="-2.271341"><ele>211.63</ele><time>2011-08-03T11:40:15Z</time></trkpt><trkpt lat="51.661513" lon="-2.271326"><ele>212.59</ele><time>2011-08-03T11:40:24Z</time></trkpt><trkpt lat="51.661535" lon="-2.271313"><ele>214.03</ele><time>2011-08-03T11:40:32Z</time></trkpt><trkpt lat="51.661541" lon="-2.271318"><ele>214.51</ele><time>2011-08-03T11:40:45Z</time></trkpt><trkpt lat="51.661545" lon="-2.271303"><ele>214.03</ele><time>2011-08-03T11:40:57Z</time></trkpt><trkpt lat="51.661556" lon="-2.271312"><ele>213.55</ele><time>2011-08-03T11:41:18Z</time></trkpt><trkpt lat="51.661573" lon="-2.271121"><ele>214.03</ele><time>2011-08-03T11:41:42Z</time></trkpt><trkpt lat="51.661581" lon="-2.271055"><ele>217.88</ele><time>2011-08-03T11:41:54Z</time></trkpt><trkpt lat="51.661611" lon="-2.271005"><ele>220.28</ele><time>2011-08-03T11:42:09Z</time></trkpt><trkpt lat="51.661722" lon="-2.271036"><ele>227.01</ele><time>2011-08-03T11:42:45Z</time></trkpt><trkpt lat="51.661716" lon="-2.271001"><ele>231.33</ele><time>2011-08-03T11:43:09Z</time></trkpt><trkpt lat="51.661702" lon="-2.270908"><ele>227.49</ele><time>2011-08-03T11:43:27Z</time></trkpt><trkpt lat="51.661662" lon="-2.270823"><ele>224.61</ele><time>2011-08-03T11:43:36Z</time></trkpt><trkpt lat="51.661653" lon="-2.270702"><ele>220.76</ele><time>2011-08-03T11:43:50Z</time></trkpt><trkpt lat="51.661610" lon="-2.270644"><ele>221.24</ele><time>2011-08-03T11:43:58Z</time></trkpt><trkpt lat="51.661604" lon="-2.270569"><ele>221.72</ele><time>2011-08-03T11:44:07Z</time></trkpt><trkpt lat="51.661608" lon="-2.270569"><ele>222.20</ele><time>2011-08-03T11:44:31Z</time></trkpt><trkpt lat="51.661637" lon="-2.270531"><ele>219.32</ele><time>2011-08-03T11:44:51Z</time></trkpt><trkpt lat="51.661731" lon="-2.270509"><ele>219.80</ele><time>2011-08-03T11:45:01Z</time></trkpt><trkpt lat="51.661802" lon="-2.270478"><ele>220.76</ele><time>2011-08-03T11:45:08Z</time></trkpt><trkpt lat="51.661899" lon="-2.270428"><ele>222.68</ele><time>2011-08-03T11:45:18Z</time></trkpt><trkpt lat="51.661980" lon="-2.270340"><ele>223.16</ele><time>2011-08-03T11:45:28Z</time></trkpt><trkpt lat="51.662054" lon="-2.270244"><ele>222.20</ele><time>2011-08-03T11:45:37Z</time></trkpt><trkpt lat="51.662122" lon="-2.270187"><ele>221.24</ele><time>2011-08-03T11:45:44Z</time></trkpt><trkpt lat="51.662141" lon="-2.270140"><ele>219.80</ele><time>2011-08-03T11:45:52Z</time></trkpt><trkpt lat="51.662139" lon="-2.270150"><ele>219.32</ele><time>2011-08-03T11:46:01Z</time></trkpt><trkpt lat="51.662143" lon="-2.270142"><ele>218.84</ele><time>2011-08-03T11:46:08Z</time></trkpt><trkpt lat="51.662150" lon="-2.270150"><ele>218.84</ele><time>2011-08-03T11:46:10Z</time></trkpt><trkpt lat="51.662191" lon="-2.270229"><ele>218.84</ele><time>2011-08-03T11:46:16Z</time></trkpt><trkpt lat="51.662195" lon="-2.270315"><ele>218.84</ele><time>2011-08-03T11:46:21Z</time></trkpt><trkpt lat="51.662168" lon="-2.270362"><ele>218.84</ele><time>2011-08-03T11:46:28Z</time></trkpt><trkpt lat="51.662138" lon="-2.270325"><ele>219.32</ele><time>2011-08-03T11:46:35Z</time></trkpt><trkpt lat="51.662143" lon="-2.270327"><ele>219.80</ele><time>2011-08-03T11:47:42Z</time></trkpt></trkseg></trk></gpx>